<?xml version="1.0" encoding="UTF-8" standalone="no" ?>
<gpx xmlns="http://www.topografix.com/GPX/1/1" xmlns:xsi="http://www.w3.org/2001/XMLSchema-instance" xsi:schemaLocation="http://www.topografix.com/GPX/1/1 http://www.topografix.com/GPX/1/1/gpx.xsd" version="1.1" creator="VisuGPX - https://www.visugpx.com">
  <metadata>
    <name>Boucle des trois sommets : Oratoire, Cimettes, Tourtoureau</name>
    <desc><![CDATA[Remarques : - le tracé quitte le GR à la base de la pointe sommitale du Tourtoureau et ne passe donc pas à son sommet (pour éviter un troupeau et ses patous qui l'occupaient) et la contourne par des sentes de troupeau.
- attention : descente du Tourtoureau très longue, abrupte et sur terrain caillouteux très instable sans véritable trace de sentier (c'est pourtant le GR).
- une partie hors sentier dans la prairie pour rejoindre le GR6.]]></desc>
  </metadata>
  <trk>
    <name><![CDATA[13/09/2021 08:56:48  Boucle des trois sommets : Oratoire, Cimettes, Tourtoureau]]></name>
    <extensions>
      <line xmlns="http://www.topografix.com/GPX/gpx_style/0/2">
        <color>0000FF</color>
        <width>4</width>
      </line>
    </extensions>
    <trkseg>
      <trkpt lat="44.29832" lon="6.1782">
        <ele>1349.5999755859</ele>
        <time>2021-09-13T06:56:48Z</time>
      </trkpt>
      <trkpt lat="44.29837" lon="6.17828">
        <ele>1349.8000488281</ele>
        <time>2021-09-13T06:56:57Z</time>
      </trkpt>
      <trkpt lat="44.29846" lon="6.17845">
        <ele>1350.4000244141</ele>
        <time>2021-09-13T06:57:16Z</time>
      </trkpt>
      <trkpt lat="44.29849" lon="6.17881">
        <ele>1350.8000488281</ele>
        <time>2021-09-13T06:57:38Z</time>
      </trkpt>
      <trkpt lat="44.29859" lon="6.17919">
        <ele>1350.1999511719</ele>
        <time>2021-09-13T06:58:00Z</time>
      </trkpt>
      <trkpt lat="44.29871" lon="6.17941">
        <ele>1349.5999755859</ele>
        <time>2021-09-13T06:58:17Z</time>
      </trkpt>
      <trkpt lat="44.29872" lon="6.17942">
        <ele>1350</ele>
        <time>2021-09-13T06:58:26Z</time>
      </trkpt>
      <trkpt lat="44.29875" lon="6.17944">
        <ele>1350</ele>
        <time>2021-09-13T06:58:29Z</time>
      </trkpt>
      <trkpt lat="44.29885" lon="6.17962">
        <ele>1350.5999755859</ele>
        <time>2021-09-13T06:58:44Z</time>
      </trkpt>
      <trkpt lat="44.29898" lon="6.17985">
        <ele>1352.1999511719</ele>
        <time>2021-09-13T06:59:04Z</time>
      </trkpt>
      <trkpt lat="44.29912" lon="6.18007">
        <ele>1354</ele>
        <time>2021-09-13T06:59:25Z</time>
      </trkpt>
      <trkpt lat="44.29916" lon="6.18011">
        <ele>1354.1999511719</ele>
        <time>2021-09-13T06:59:29Z</time>
      </trkpt>
      <trkpt lat="44.29933" lon="6.18015">
        <ele>1356</ele>
        <time>2021-09-13T06:59:50Z</time>
      </trkpt>
      <trkpt lat="44.29937" lon="6.18017">
        <ele>1356.1999511719</ele>
        <time>2021-09-13T06:59:54Z</time>
      </trkpt>
      <trkpt lat="44.29947" lon="6.18017">
        <ele>1357</ele>
        <time>2021-09-13T07:00:02Z</time>
      </trkpt>
      <trkpt lat="44.29954" lon="6.18017">
        <ele>1357.5999755859</ele>
        <time>2021-09-13T07:00:08Z</time>
      </trkpt>
      <trkpt lat="44.2997" lon="6.18022">
        <ele>1358.4000244141</ele>
        <time>2021-09-13T07:00:23Z</time>
      </trkpt>
      <trkpt lat="44.29988" lon="6.18024">
        <ele>1359.8000488281</ele>
        <time>2021-09-13T07:00:41Z</time>
      </trkpt>
      <trkpt lat="44.30001" lon="6.18033">
        <ele>1361</ele>
        <time>2021-09-13T07:00:52Z</time>
      </trkpt>
      <trkpt lat="44.30014" lon="6.18045">
        <ele>1362.4000244141</ele>
        <time>2021-09-13T07:01:07Z</time>
      </trkpt>
      <trkpt lat="44.30015" lon="6.18046">
        <ele>1362.5999755859</ele>
        <time>2021-09-13T07:01:08Z</time>
      </trkpt>
      <trkpt lat="44.30028" lon="6.18059">
        <ele>1364</ele>
        <time>2021-09-13T07:01:22Z</time>
      </trkpt>
      <trkpt lat="44.30036" lon="6.18069">
        <ele>1365</ele>
        <time>2021-09-13T07:01:32Z</time>
      </trkpt>
      <trkpt lat="44.30038" lon="6.18073">
        <ele>1365.4000244141</ele>
        <time>2021-09-13T07:01:36Z</time>
      </trkpt>
      <trkpt lat="44.30057" lon="6.18087">
        <ele>1367.4000244141</ele>
        <time>2021-09-13T07:01:54Z</time>
      </trkpt>
      <trkpt lat="44.3007" lon="6.18099">
        <ele>1368.5999755859</ele>
        <time>2021-09-13T07:02:09Z</time>
      </trkpt>
      <trkpt lat="44.30076" lon="6.18104">
        <ele>1369.1999511719</ele>
        <time>2021-09-13T07:02:16Z</time>
      </trkpt>
      <trkpt lat="44.30087" lon="6.18108">
        <ele>1370.5999755859</ele>
        <time>2021-09-13T07:02:30Z</time>
      </trkpt>
      <trkpt lat="44.30103" lon="6.18103">
        <ele>1372</ele>
        <time>2021-09-13T07:02:48Z</time>
      </trkpt>
      <trkpt lat="44.30121" lon="6.18103">
        <ele>1373.4000244141</ele>
        <time>2021-09-13T07:03:05Z</time>
      </trkpt>
      <trkpt lat="44.30129" lon="6.18107">
        <ele>1373.8000488281</ele>
        <time>2021-09-13T07:03:12Z</time>
      </trkpt>
      <trkpt lat="44.3014" lon="6.18115">
        <ele>1374.8000488281</ele>
        <time>2021-09-13T07:03:23Z</time>
      </trkpt>
      <trkpt lat="44.30155" lon="6.18129">
        <ele>1375.8000488281</ele>
        <time>2021-09-13T07:03:39Z</time>
      </trkpt>
      <trkpt lat="44.30163" lon="6.18146">
        <ele>1377.1999511719</ele>
        <time>2021-09-13T07:03:53Z</time>
      </trkpt>
      <trkpt lat="44.30173" lon="6.18159">
        <ele>1378.1999511719</ele>
        <time>2021-09-13T07:04:06Z</time>
      </trkpt>
      <trkpt lat="44.30176" lon="6.18163">
        <ele>1378.5999755859</ele>
        <time>2021-09-13T07:04:10Z</time>
      </trkpt>
      <trkpt lat="44.30182" lon="6.18171">
        <ele>1379.1999511719</ele>
        <time>2021-09-13T07:04:18Z</time>
      </trkpt>
      <trkpt lat="44.30186" lon="6.18175">
        <ele>1379.1999511719</ele>
        <time>2021-09-13T07:04:22Z</time>
      </trkpt>
      <trkpt lat="44.30188" lon="6.18176">
        <ele>1379.4000244141</ele>
        <time>2021-09-13T07:04:24Z</time>
      </trkpt>
      <trkpt lat="44.30192" lon="6.18181">
        <ele>1379.8000488281</ele>
        <time>2021-09-13T07:04:29Z</time>
      </trkpt>
      <trkpt lat="44.30194" lon="6.18185">
        <ele>1380</ele>
        <time>2021-09-13T07:04:33Z</time>
      </trkpt>
      <trkpt lat="44.302" lon="6.18196">
        <ele>1380.8000488281</ele>
        <time>2021-09-13T07:04:42Z</time>
      </trkpt>
      <trkpt lat="44.30204" lon="6.18198">
        <ele>1381.1999511719</ele>
        <time>2021-09-13T07:04:46Z</time>
      </trkpt>
      <trkpt lat="44.30212" lon="6.18214">
        <ele>1383</ele>
        <time>2021-09-13T07:05:01Z</time>
      </trkpt>
      <trkpt lat="44.30213" lon="6.18217">
        <ele>1383.1999511719</ele>
        <time>2021-09-13T07:05:03Z</time>
      </trkpt>
      <trkpt lat="44.30223" lon="6.18224">
        <ele>1384.1999511719</ele>
        <time>2021-09-13T07:05:16Z</time>
      </trkpt>
      <trkpt lat="44.30228" lon="6.18225">
        <ele>1384.4000244141</ele>
        <time>2021-09-13T07:05:20Z</time>
      </trkpt>
      <trkpt lat="44.30237" lon="6.18231">
        <ele>1385.4000244141</ele>
        <time>2021-09-13T07:05:28Z</time>
      </trkpt>
      <trkpt lat="44.3025" lon="6.18248">
        <ele>1387</ele>
        <time>2021-09-13T07:05:48Z</time>
      </trkpt>
      <trkpt lat="44.30252" lon="6.1825">
        <ele>1387.1999511719</ele>
        <time>2021-09-13T07:05:50Z</time>
      </trkpt>
      <trkpt lat="44.30253" lon="6.18252">
        <ele>1387.4000244141</ele>
        <time>2021-09-13T07:05:52Z</time>
      </trkpt>
      <trkpt lat="44.30259" lon="6.18256">
        <ele>1388</ele>
        <time>2021-09-13T07:05:58Z</time>
      </trkpt>
      <trkpt lat="44.30277" lon="6.18272">
        <ele>1389.8000488281</ele>
        <time>2021-09-13T07:06:18Z</time>
      </trkpt>
      <trkpt lat="44.30287" lon="6.18287">
        <ele>1391</ele>
        <time>2021-09-13T07:06:32Z</time>
      </trkpt>
      <trkpt lat="44.30293" lon="6.18292">
        <ele>1391.8000488281</ele>
        <time>2021-09-13T07:06:38Z</time>
      </trkpt>
      <trkpt lat="44.30306" lon="6.18305">
        <ele>1393</ele>
        <time>2021-09-13T07:06:53Z</time>
      </trkpt>
      <trkpt lat="44.30304" lon="6.18313">
        <ele>1394.1999511719</ele>
        <time>2021-09-13T07:07:12Z</time>
      </trkpt>
      <trkpt lat="44.30306" lon="6.18324">
        <ele>1394.4000244141</ele>
        <time>2021-09-13T07:07:25Z</time>
      </trkpt>
      <trkpt lat="44.30313" lon="6.18351">
        <ele>1395.5999755859</ele>
        <time>2021-09-13T07:07:45Z</time>
      </trkpt>
      <trkpt lat="44.30321" lon="6.18384">
        <ele>1397.1999511719</ele>
        <time>2021-09-13T07:08:10Z</time>
      </trkpt>
      <trkpt lat="44.30334" lon="6.18421">
        <ele>1399.8000488281</ele>
        <time>2021-09-13T07:08:37Z</time>
      </trkpt>
      <trkpt lat="44.30346" lon="6.18443">
        <ele>1402.4000244141</ele>
        <time>2021-09-13T07:08:56Z</time>
      </trkpt>
      <trkpt lat="44.30356" lon="6.18475">
        <ele>1404.8000488281</ele>
        <time>2021-09-13T07:09:23Z</time>
      </trkpt>
      <trkpt lat="44.3035" lon="6.18503">
        <ele>1407.4000244141</ele>
        <time>2021-09-13T07:09:46Z</time>
      </trkpt>
      <trkpt lat="44.30349" lon="6.18534">
        <ele>1409.1999511719</ele>
        <time>2021-09-13T07:10:09Z</time>
      </trkpt>
      <trkpt lat="44.30348" lon="6.18564">
        <ele>1411.1999511719</ele>
        <time>2021-09-13T07:10:31Z</time>
      </trkpt>
      <trkpt lat="44.30349" lon="6.1858">
        <ele>1412</ele>
        <time>2021-09-13T07:10:42Z</time>
      </trkpt>
      <trkpt lat="44.30358" lon="6.18608">
        <ele>1413.8000488281</ele>
        <time>2021-09-13T07:11:04Z</time>
      </trkpt>
      <trkpt lat="44.30369" lon="6.18646">
        <ele>1416.8000488281</ele>
        <time>2021-09-13T07:11:34Z</time>
      </trkpt>
      <trkpt lat="44.30383" lon="6.18658">
        <ele>1418.8000488281</ele>
        <time>2021-09-13T07:11:56Z</time>
      </trkpt>
      <trkpt lat="44.30387" lon="6.18633">
        <ele>1419.8000488281</ele>
        <time>2021-09-13T07:12:16Z</time>
      </trkpt>
      <trkpt lat="44.30382" lon="6.18599">
        <ele>1422</ele>
        <time>2021-09-13T07:12:41Z</time>
      </trkpt>
      <trkpt lat="44.30382" lon="6.18589">
        <ele>1423.4000244141</ele>
        <time>2021-09-13T07:13:03Z</time>
      </trkpt>
      <trkpt lat="44.30384" lon="6.18548">
        <ele>1424.5999755859</ele>
        <time>2021-09-13T07:13:30Z</time>
      </trkpt>
      <trkpt lat="44.30391" lon="6.18545">
        <ele>1425.4000244141</ele>
        <time>2021-09-13T07:13:40Z</time>
      </trkpt>
      <trkpt lat="44.30392" lon="6.18568">
        <ele>1426.8000488281</ele>
        <time>2021-09-13T07:13:58Z</time>
      </trkpt>
      <trkpt lat="44.30396" lon="6.18601">
        <ele>1429.5999755859</ele>
        <time>2021-09-13T07:14:21Z</time>
      </trkpt>
      <trkpt lat="44.30396" lon="6.18602">
        <ele>1429.8000488281</ele>
        <time>2021-09-13T07:14:22Z</time>
      </trkpt>
      <trkpt lat="44.3041" lon="6.18631">
        <ele>1431.5999755859</ele>
        <time>2021-09-13T07:14:45Z</time>
      </trkpt>
      <trkpt lat="44.30417" lon="6.18646">
        <ele>1432.8000488281</ele>
        <time>2021-09-13T07:14:58Z</time>
      </trkpt>
      <trkpt lat="44.30428" lon="6.18676">
        <ele>1435.4000244141</ele>
        <time>2021-09-13T07:15:24Z</time>
      </trkpt>
      <trkpt lat="44.3043" lon="6.18676">
        <ele>1436</ele>
        <time>2021-09-13T07:15:34Z</time>
      </trkpt>
      <trkpt lat="44.30441" lon="6.18702">
        <ele>1437</ele>
        <time>2021-09-13T07:15:54Z</time>
      </trkpt>
      <trkpt lat="44.30448" lon="6.18743">
        <ele>1440</ele>
        <time>2021-09-13T07:16:20Z</time>
      </trkpt>
      <trkpt lat="44.30452" lon="6.18785">
        <ele>1443.1999511719</ele>
        <time>2021-09-13T07:16:49Z</time>
      </trkpt>
      <trkpt lat="44.30453" lon="6.18799">
        <ele>1444.1999511719</ele>
        <time>2021-09-13T07:16:58Z</time>
      </trkpt>
      <trkpt lat="44.30463" lon="6.18835">
        <ele>1446.4000244141</ele>
        <time>2021-09-13T07:17:25Z</time>
      </trkpt>
      <trkpt lat="44.30474" lon="6.18868">
        <ele>1448.5999755859</ele>
        <time>2021-09-13T07:17:49Z</time>
      </trkpt>
      <trkpt lat="44.30472" lon="6.18912">
        <ele>1451.1999511719</ele>
        <time>2021-09-13T07:18:17Z</time>
      </trkpt>
      <trkpt lat="44.30481" lon="6.18937">
        <ele>1452.8000488281</ele>
        <time>2021-09-13T07:18:37Z</time>
      </trkpt>
      <trkpt lat="44.30486" lon="6.18965">
        <ele>1453.8000488281</ele>
        <time>2021-09-13T07:18:58Z</time>
      </trkpt>
      <trkpt lat="44.30485" lon="6.19006">
        <ele>1455.8000488281</ele>
        <time>2021-09-13T07:19:23Z</time>
      </trkpt>
      <trkpt lat="44.30485" lon="6.1901">
        <ele>1456</ele>
        <time>2021-09-13T07:19:26Z</time>
      </trkpt>
      <trkpt lat="44.30492" lon="6.19049">
        <ele>1457.1999511719</ele>
        <time>2021-09-13T07:19:51Z</time>
      </trkpt>
      <trkpt lat="44.30488" lon="6.19094">
        <ele>1459.8000488281</ele>
        <time>2021-09-13T07:20:22Z</time>
      </trkpt>
      <trkpt lat="44.30486" lon="6.19138">
        <ele>1462.1999511719</ele>
        <time>2021-09-13T07:20:51Z</time>
      </trkpt>
      <trkpt lat="44.30482" lon="6.19165">
        <ele>1464.8000488281</ele>
        <time>2021-09-13T07:21:14Z</time>
      </trkpt>
      <trkpt lat="44.30473" lon="6.19207">
        <ele>1467</ele>
        <time>2021-09-13T07:21:42Z</time>
      </trkpt>
      <trkpt lat="44.30474" lon="6.19242">
        <ele>1469</ele>
        <time>2021-09-13T07:22:10Z</time>
      </trkpt>
      <trkpt lat="44.30478" lon="6.1928">
        <ele>1471.4000244141</ele>
        <time>2021-09-13T07:22:36Z</time>
      </trkpt>
      <trkpt lat="44.30477" lon="6.19281">
        <ele>1472.5999755859</ele>
        <time>2021-09-13T07:22:59Z</time>
      </trkpt>
      <trkpt lat="44.30489" lon="6.19278">
        <ele>1472.5999755859</ele>
        <time>2021-09-13T07:23:20Z</time>
      </trkpt>
      <trkpt lat="44.30495" lon="6.19257">
        <ele>1473.1999511719</ele>
        <time>2021-09-13T07:23:36Z</time>
      </trkpt>
      <trkpt lat="44.30497" lon="6.19249">
        <ele>1473.5999755859</ele>
        <time>2021-09-13T07:23:42Z</time>
      </trkpt>
      <trkpt lat="44.30504" lon="6.1922">
        <ele>1474.8000488281</ele>
        <time>2021-09-13T07:24:03Z</time>
      </trkpt>
      <trkpt lat="44.30505" lon="6.19211">
        <ele>1475.1999511719</ele>
        <time>2021-09-13T07:24:09Z</time>
      </trkpt>
      <trkpt lat="44.30506" lon="6.19206">
        <ele>1475.5999755859</ele>
        <time>2021-09-13T07:24:15Z</time>
      </trkpt>
      <trkpt lat="44.30501" lon="6.19233">
        <ele>1477.1999511719</ele>
        <time>2021-09-13T07:24:37Z</time>
      </trkpt>
      <trkpt lat="44.30506" lon="6.19271">
        <ele>1479.5999755859</ele>
        <time>2021-09-13T07:25:01Z</time>
      </trkpt>
      <trkpt lat="44.30511" lon="6.19269">
        <ele>1480.1999511719</ele>
        <time>2021-09-13T07:25:21Z</time>
      </trkpt>
      <trkpt lat="44.30509" lon="6.19269">
        <ele>1480</ele>
        <time>2021-09-13T07:25:44Z</time>
      </trkpt>
      <trkpt lat="44.30508" lon="6.1927">
        <ele>1480.4000244141</ele>
        <time>2021-09-13T07:25:57Z</time>
      </trkpt>
      <trkpt lat="44.30509" lon="6.1927">
        <ele>1480.5999755859</ele>
        <time>2021-09-13T07:25:59Z</time>
      </trkpt>
      <trkpt lat="44.30511" lon="6.19289">
        <ele>1481.1999511719</ele>
        <time>2021-09-13T07:26:18Z</time>
      </trkpt>
      <trkpt lat="44.30509" lon="6.19324">
        <ele>1483.8000488281</ele>
        <time>2021-09-13T07:26:45Z</time>
      </trkpt>
      <trkpt lat="44.30509" lon="6.19356">
        <ele>1486</ele>
        <time>2021-09-13T07:27:06Z</time>
      </trkpt>
      <trkpt lat="44.30516" lon="6.19397">
        <ele>1488.1999511719</ele>
        <time>2021-09-13T07:27:32Z</time>
      </trkpt>
      <trkpt lat="44.30522" lon="6.19416">
        <ele>1489.8000488281</ele>
        <time>2021-09-13T07:27:50Z</time>
      </trkpt>
      <trkpt lat="44.30518" lon="6.19458">
        <ele>1492.4000244141</ele>
        <time>2021-09-13T07:28:23Z</time>
      </trkpt>
      <trkpt lat="44.30523" lon="6.19506">
        <ele>1495.1999511719</ele>
        <time>2021-09-13T07:28:55Z</time>
      </trkpt>
      <trkpt lat="44.30528" lon="6.19551">
        <ele>1498</ele>
        <time>2021-09-13T07:29:28Z</time>
      </trkpt>
      <trkpt lat="44.30525" lon="6.19575">
        <ele>1499.8000488281</ele>
        <time>2021-09-13T07:29:45Z</time>
      </trkpt>
      <trkpt lat="44.30526" lon="6.19608">
        <ele>1502.4000244141</ele>
        <time>2021-09-13T07:30:14Z</time>
      </trkpt>
      <trkpt lat="44.30525" lon="6.19618">
        <ele>1503</ele>
        <time>2021-09-13T07:30:22Z</time>
      </trkpt>
      <trkpt lat="44.30522" lon="6.19658">
        <ele>1505.1999511719</ele>
        <time>2021-09-13T07:30:49Z</time>
      </trkpt>
      <trkpt lat="44.3052" lon="6.19682">
        <ele>1506.5999755859</ele>
        <time>2021-09-13T07:31:03Z</time>
      </trkpt>
      <trkpt lat="44.30524" lon="6.19724">
        <ele>1509</ele>
        <time>2021-09-13T07:31:31Z</time>
      </trkpt>
      <trkpt lat="44.30523" lon="6.19765">
        <ele>1511.8000488281</ele>
        <time>2021-09-13T07:32:00Z</time>
      </trkpt>
      <trkpt lat="44.3052" lon="6.19809">
        <ele>1514</ele>
        <time>2021-09-13T07:32:27Z</time>
      </trkpt>
      <trkpt lat="44.30519" lon="6.19839">
        <ele>1517</ele>
        <time>2021-09-13T07:32:55Z</time>
      </trkpt>
      <trkpt lat="44.30516" lon="6.19867">
        <ele>1520</ele>
        <time>2021-09-13T07:33:24Z</time>
      </trkpt>
      <trkpt lat="44.30515" lon="6.19873">
        <ele>1520.1999511719</ele>
        <time>2021-09-13T07:33:27Z</time>
      </trkpt>
      <trkpt lat="44.30502" lon="6.1992">
        <ele>1523.4000244141</ele>
        <time>2021-09-13T07:33:56Z</time>
      </trkpt>
      <trkpt lat="44.30492" lon="6.19953">
        <ele>1526.4000244141</ele>
        <time>2021-09-13T07:34:23Z</time>
      </trkpt>
      <trkpt lat="44.3048" lon="6.19988">
        <ele>1529.4000244141</ele>
        <time>2021-09-13T07:34:51Z</time>
      </trkpt>
      <trkpt lat="44.30463" lon="6.20025">
        <ele>1532.4000244141</ele>
        <time>2021-09-13T07:35:16Z</time>
      </trkpt>
      <trkpt lat="44.3046" lon="6.20048">
        <ele>1534</ele>
        <time>2021-09-13T07:35:33Z</time>
      </trkpt>
      <trkpt lat="44.30458" lon="6.20052">
        <ele>1535</ele>
        <time>2021-09-13T07:35:52Z</time>
      </trkpt>
      <trkpt lat="44.30456" lon="6.20063">
        <ele>1535.8000488281</ele>
        <time>2021-09-13T07:36:03Z</time>
      </trkpt>
      <trkpt lat="44.30455" lon="6.20074">
        <ele>1537.4000244141</ele>
        <time>2021-09-13T07:36:16Z</time>
      </trkpt>
      <trkpt lat="44.30451" lon="6.20109">
        <ele>1539.8000488281</ele>
        <time>2021-09-13T07:36:41Z</time>
      </trkpt>
      <trkpt lat="44.30436" lon="6.20145">
        <ele>1543</ele>
        <time>2021-09-13T07:37:09Z</time>
      </trkpt>
      <trkpt lat="44.30422" lon="6.20163">
        <ele>1544</ele>
        <time>2021-09-13T07:37:20Z</time>
      </trkpt>
      <trkpt lat="44.30379" lon="6.20183">
        <ele>1547.1999511719</ele>
        <time>2021-09-13T07:37:52Z</time>
      </trkpt>
      <trkpt lat="44.30368" lon="6.20197">
        <ele>1550</ele>
        <time>2021-09-13T07:38:17Z</time>
      </trkpt>
      <trkpt lat="44.30389" lon="6.20207">
        <ele>1551.8000488281</ele>
        <time>2021-09-13T07:38:38Z</time>
      </trkpt>
      <trkpt lat="44.30412" lon="6.20215">
        <ele>1553.4000244141</ele>
        <time>2021-09-13T07:38:59Z</time>
      </trkpt>
      <trkpt lat="44.30416" lon="6.20215">
        <ele>1554</ele>
        <time>2021-09-13T07:39:03Z</time>
      </trkpt>
      <trkpt lat="44.30419" lon="6.20216">
        <ele>1555</ele>
        <time>2021-09-13T07:39:12Z</time>
      </trkpt>
      <trkpt lat="44.30442" lon="6.20216">
        <ele>1556.4000244141</ele>
        <time>2021-09-13T07:39:28Z</time>
      </trkpt>
      <trkpt lat="44.30443" lon="6.20216">
        <ele>1556.4000244141</ele>
        <time>2021-09-13T07:39:29Z</time>
      </trkpt>
      <trkpt lat="44.30459" lon="6.20202">
        <ele>1557.8000488281</ele>
        <time>2021-09-13T07:39:56Z</time>
      </trkpt>
      <trkpt lat="44.30462" lon="6.20192">
        <ele>1561</ele>
        <time>2021-09-13T07:40:18Z</time>
      </trkpt>
      <trkpt lat="44.30472" lon="6.20173">
        <ele>1564</ele>
        <time>2021-09-13T07:40:42Z</time>
      </trkpt>
      <trkpt lat="44.30485" lon="6.20155">
        <ele>1567.1999511719</ele>
        <time>2021-09-13T07:41:07Z</time>
      </trkpt>
      <trkpt lat="44.30495" lon="6.20143">
        <ele>1569.1999511719</ele>
        <time>2021-09-13T07:41:27Z</time>
      </trkpt>
      <trkpt lat="44.30497" lon="6.20143">
        <ele>1569.5999755859</ele>
        <time>2021-09-13T07:41:29Z</time>
      </trkpt>
      <trkpt lat="44.30509" lon="6.2013">
        <ele>1572.4000244141</ele>
        <time>2021-09-13T07:41:52Z</time>
      </trkpt>
      <trkpt lat="44.30518" lon="6.20098">
        <ele>1575.4000244141</ele>
        <time>2021-09-13T07:42:20Z</time>
      </trkpt>
      <trkpt lat="44.30527" lon="6.20079">
        <ele>1577.1999511719</ele>
        <time>2021-09-13T07:42:43Z</time>
      </trkpt>
      <trkpt lat="44.30537" lon="6.20064">
        <ele>1580.1999511719</ele>
        <time>2021-09-13T07:43:06Z</time>
      </trkpt>
      <trkpt lat="44.30549" lon="6.20045">
        <ele>1582.4000244141</ele>
        <time>2021-09-13T07:43:26Z</time>
      </trkpt>
      <trkpt lat="44.30549" lon="6.20043">
        <ele>1582.5999755859</ele>
        <time>2021-09-13T07:43:28Z</time>
      </trkpt>
      <trkpt lat="44.30554" lon="6.20035">
        <ele>1582.8000488281</ele>
        <time>2021-09-13T07:43:36Z</time>
      </trkpt>
      <trkpt lat="44.30562" lon="6.20016">
        <ele>1583.8000488281</ele>
        <time>2021-09-13T07:43:54Z</time>
      </trkpt>
      <trkpt lat="44.30566" lon="6.19998">
        <ele>1587</ele>
        <time>2021-09-13T07:44:14Z</time>
      </trkpt>
      <trkpt lat="44.30575" lon="6.19974">
        <ele>1589</ele>
        <time>2021-09-13T07:44:34Z</time>
      </trkpt>
      <trkpt lat="44.30579" lon="6.19954">
        <ele>1590.1999511719</ele>
        <time>2021-09-13T07:44:56Z</time>
      </trkpt>
      <trkpt lat="44.30585" lon="6.19945">
        <ele>1591.1999511719</ele>
        <time>2021-09-13T07:45:11Z</time>
      </trkpt>
      <trkpt lat="44.30584" lon="6.19936">
        <ele>1593.4000244141</ele>
        <time>2021-09-13T07:45:30Z</time>
      </trkpt>
      <trkpt lat="44.30594" lon="6.19931">
        <ele>1595.1999511719</ele>
        <time>2021-09-13T07:45:51Z</time>
      </trkpt>
      <trkpt lat="44.30595" lon="6.1991">
        <ele>1598.1999511719</ele>
        <time>2021-09-13T07:46:12Z</time>
      </trkpt>
      <trkpt lat="44.30595" lon="6.19909">
        <ele>1598.1999511719</ele>
        <time>2021-09-13T07:46:13Z</time>
      </trkpt>
      <trkpt lat="44.30605" lon="6.19888">
        <ele>1601.4000244141</ele>
        <time>2021-09-13T07:46:36Z</time>
      </trkpt>
      <trkpt lat="44.30608" lon="6.19873">
        <ele>1602.5999755859</ele>
        <time>2021-09-13T07:46:54Z</time>
      </trkpt>
      <trkpt lat="44.30615" lon="6.19844">
        <ele>1605</ele>
        <time>2021-09-13T07:47:22Z</time>
      </trkpt>
      <trkpt lat="44.30617" lon="6.19836">
        <ele>1605.5999755859</ele>
        <time>2021-09-13T07:47:28Z</time>
      </trkpt>
      <trkpt lat="44.3062" lon="6.1981">
        <ele>1607.4000244141</ele>
        <time>2021-09-13T07:47:47Z</time>
      </trkpt>
      <trkpt lat="44.30623" lon="6.19789">
        <ele>1609.5999755859</ele>
        <time>2021-09-13T07:48:05Z</time>
      </trkpt>
      <trkpt lat="44.30625" lon="6.19776">
        <ele>1611.1999511719</ele>
        <time>2021-09-13T07:48:19Z</time>
      </trkpt>
      <trkpt lat="44.30632" lon="6.19786">
        <ele>1613</ele>
        <time>2021-09-13T07:48:34Z</time>
      </trkpt>
      <trkpt lat="44.30637" lon="6.19801">
        <ele>1614.8000488281</ele>
        <time>2021-09-13T07:48:46Z</time>
      </trkpt>
      <trkpt lat="44.30646" lon="6.19821">
        <ele>1618</ele>
        <time>2021-09-13T07:49:06Z</time>
      </trkpt>
      <trkpt lat="44.3065" lon="6.19832">
        <ele>1619.1999511719</ele>
        <time>2021-09-13T07:49:16Z</time>
      </trkpt>
      <trkpt lat="44.30649" lon="6.19835">
        <ele>1619.4000244141</ele>
        <time>2021-09-13T07:49:18Z</time>
      </trkpt>
      <trkpt lat="44.30651" lon="6.19862">
        <ele>1622.5999755859</ele>
        <time>2021-09-13T07:49:38Z</time>
      </trkpt>
      <trkpt lat="44.30656" lon="6.19873">
        <ele>1625.8000488281</ele>
        <time>2021-09-13T07:49:59Z</time>
      </trkpt>
      <trkpt lat="44.30657" lon="6.19887">
        <ele>1629</ele>
        <time>2021-09-13T07:50:20Z</time>
      </trkpt>
      <trkpt lat="44.3066" lon="6.19902">
        <ele>1632</ele>
        <time>2021-09-13T07:50:42Z</time>
      </trkpt>
      <trkpt lat="44.30663" lon="6.19912">
        <ele>1634.8000488281</ele>
        <time>2021-09-13T07:51:13Z</time>
      </trkpt>
      <trkpt lat="44.30668" lon="6.1993">
        <ele>1637.4000244141</ele>
        <time>2021-09-13T07:51:38Z</time>
      </trkpt>
      <trkpt lat="44.30672" lon="6.19947">
        <ele>1640.5999755859</ele>
        <time>2021-09-13T07:52:00Z</time>
      </trkpt>
      <trkpt lat="44.30667" lon="6.19962">
        <ele>1643.8000488281</ele>
        <time>2021-09-13T07:52:22Z</time>
      </trkpt>
      <trkpt lat="44.30668" lon="6.19984">
        <ele>1646.8000488281</ele>
        <time>2021-09-13T07:52:47Z</time>
      </trkpt>
      <trkpt lat="44.30668" lon="6.20005">
        <ele>1649.8000488281</ele>
        <time>2021-09-13T07:53:11Z</time>
      </trkpt>
      <trkpt lat="44.30669" lon="6.2002">
        <ele>1652.8000488281</ele>
        <time>2021-09-13T07:53:30Z</time>
      </trkpt>
      <trkpt lat="44.3067" lon="6.20029">
        <ele>1654.8000488281</ele>
        <time>2021-09-13T07:54:13Z</time>
      </trkpt>
      <trkpt lat="44.30675" lon="6.20014">
        <ele>1657</ele>
        <time>2021-09-13T07:54:33Z</time>
      </trkpt>
      <trkpt lat="44.30688" lon="6.20001">
        <ele>1660</ele>
        <time>2021-09-13T07:54:56Z</time>
      </trkpt>
      <trkpt lat="44.30696" lon="6.19981">
        <ele>1662.5999755859</ele>
        <time>2021-09-13T07:55:19Z</time>
      </trkpt>
      <trkpt lat="44.30702" lon="6.19971">
        <ele>1665.5999755859</ele>
        <time>2021-09-13T07:55:42Z</time>
      </trkpt>
      <trkpt lat="44.30707" lon="6.19969">
        <ele>1668.4000244141</ele>
        <time>2021-09-13T07:56:11Z</time>
      </trkpt>
      <trkpt lat="44.30712" lon="6.19961">
        <ele>1668.5999755859</ele>
        <time>2021-09-13T07:56:51Z</time>
      </trkpt>
      <trkpt lat="44.30722" lon="6.19952">
        <ele>1671.8000488281</ele>
        <time>2021-09-13T07:57:11Z</time>
      </trkpt>
      <trkpt lat="44.30727" lon="6.19926">
        <ele>1675</ele>
        <time>2021-09-13T07:57:33Z</time>
      </trkpt>
      <trkpt lat="44.30731" lon="6.19915">
        <ele>1678</ele>
        <time>2021-09-13T07:57:53Z</time>
      </trkpt>
      <trkpt lat="44.30735" lon="6.19901">
        <ele>1680.8000488281</ele>
        <time>2021-09-13T07:58:18Z</time>
      </trkpt>
      <trkpt lat="44.30741" lon="6.19882">
        <ele>1683.8000488281</ele>
        <time>2021-09-13T07:58:38Z</time>
      </trkpt>
      <trkpt lat="44.30749" lon="6.19863">
        <ele>1687</ele>
        <time>2021-09-13T07:59:00Z</time>
      </trkpt>
      <trkpt lat="44.30756" lon="6.1985">
        <ele>1689.4000244141</ele>
        <time>2021-09-13T07:59:20Z</time>
      </trkpt>
      <trkpt lat="44.30764" lon="6.19835">
        <ele>1692</ele>
        <time>2021-09-13T07:59:36Z</time>
      </trkpt>
      <trkpt lat="44.30766" lon="6.19832">
        <ele>1692.4000244141</ele>
        <time>2021-09-13T07:59:40Z</time>
      </trkpt>
      <trkpt lat="44.30776" lon="6.19819">
        <ele>1695.5999755859</ele>
        <time>2021-09-13T08:00:02Z</time>
      </trkpt>
      <trkpt lat="44.30785" lon="6.19803">
        <ele>1698.5999755859</ele>
        <time>2021-09-13T08:00:23Z</time>
      </trkpt>
      <trkpt lat="44.30783" lon="6.19815">
        <ele>1701.4000244141</ele>
        <time>2021-09-13T08:00:45Z</time>
      </trkpt>
      <trkpt lat="44.30783" lon="6.19839">
        <ele>1704.4000244141</ele>
        <time>2021-09-13T08:01:09Z</time>
      </trkpt>
      <trkpt lat="44.30782" lon="6.19859">
        <ele>1707.4000244141</ele>
        <time>2021-09-13T08:01:29Z</time>
      </trkpt>
      <trkpt lat="44.30781" lon="6.19877">
        <ele>1710.4000244141</ele>
        <time>2021-09-13T08:01:52Z</time>
      </trkpt>
      <trkpt lat="44.3078" lon="6.19888">
        <ele>1712.8000488281</ele>
        <time>2021-09-13T08:02:06Z</time>
      </trkpt>
      <trkpt lat="44.30781" lon="6.19901">
        <ele>1714.5999755859</ele>
        <time>2021-09-13T08:02:20Z</time>
      </trkpt>
      <trkpt lat="44.30783" lon="6.1992">
        <ele>1717.8000488281</ele>
        <time>2021-09-13T08:02:43Z</time>
      </trkpt>
      <trkpt lat="44.30783" lon="6.1994">
        <ele>1720.8000488281</ele>
        <time>2021-09-13T08:03:07Z</time>
      </trkpt>
      <trkpt lat="44.30782" lon="6.19945">
        <ele>1721.5999755859</ele>
        <time>2021-09-13T08:03:13Z</time>
      </trkpt>
      <trkpt lat="44.30784" lon="6.19966">
        <ele>1724.5999755859</ele>
        <time>2021-09-13T08:03:35Z</time>
      </trkpt>
      <trkpt lat="44.30787" lon="6.19986">
        <ele>1727.8000488281</ele>
        <time>2021-09-13T08:03:58Z</time>
      </trkpt>
      <trkpt lat="44.30788" lon="6.20005">
        <ele>1730.5999755859</ele>
        <time>2021-09-13T08:04:22Z</time>
      </trkpt>
      <trkpt lat="44.30786" lon="6.20025">
        <ele>1733.8000488281</ele>
        <time>2021-09-13T08:04:43Z</time>
      </trkpt>
      <trkpt lat="44.30795" lon="6.20018">
        <ele>1736.8000488281</ele>
        <time>2021-09-13T08:05:05Z</time>
      </trkpt>
      <trkpt lat="44.30802" lon="6.19992">
        <ele>1739.4000244141</ele>
        <time>2021-09-13T08:05:31Z</time>
      </trkpt>
      <trkpt lat="44.30808" lon="6.19978">
        <ele>1740.4000244141</ele>
        <time>2021-09-13T08:05:59Z</time>
      </trkpt>
      <trkpt lat="44.30817" lon="6.19966">
        <ele>1743.4000244141</ele>
        <time>2021-09-13T08:06:18Z</time>
      </trkpt>
      <trkpt lat="44.30828" lon="6.19945">
        <ele>1746.5999755859</ele>
        <time>2021-09-13T08:06:41Z</time>
      </trkpt>
      <trkpt lat="44.30839" lon="6.19927">
        <ele>1749.1999511719</ele>
        <time>2021-09-13T08:07:04Z</time>
      </trkpt>
      <trkpt lat="44.30841" lon="6.19913">
        <ele>1752.1999511719</ele>
        <time>2021-09-13T08:07:27Z</time>
      </trkpt>
      <trkpt lat="44.30846" lon="6.19937">
        <ele>1755.1999511719</ele>
        <time>2021-09-13T08:07:52Z</time>
      </trkpt>
      <trkpt lat="44.30848" lon="6.19952">
        <ele>1757.8000488281</ele>
        <time>2021-09-13T08:08:12Z</time>
      </trkpt>
      <trkpt lat="44.30845" lon="6.19972">
        <ele>1760.8000488281</ele>
        <time>2021-09-13T08:08:34Z</time>
      </trkpt>
      <trkpt lat="44.30844" lon="6.19992">
        <ele>1764</ele>
        <time>2021-09-13T08:08:54Z</time>
      </trkpt>
      <trkpt lat="44.30848" lon="6.20016">
        <ele>1767</ele>
        <time>2021-09-13T08:09:16Z</time>
      </trkpt>
      <trkpt lat="44.30846" lon="6.20038">
        <ele>1770</ele>
        <time>2021-09-13T08:09:38Z</time>
      </trkpt>
      <trkpt lat="44.30852" lon="6.20036">
        <ele>1773.1999511719</ele>
        <time>2021-09-13T08:09:57Z</time>
      </trkpt>
      <trkpt lat="44.30855" lon="6.2002">
        <ele>1774.8000488281</ele>
        <time>2021-09-13T08:10:16Z</time>
      </trkpt>
      <trkpt lat="44.30859" lon="6.20005">
        <ele>1776</ele>
        <time>2021-09-13T08:10:39Z</time>
      </trkpt>
      <trkpt lat="44.30869" lon="6.20003">
        <ele>1778.1999511719</ele>
        <time>2021-09-13T08:11:01Z</time>
      </trkpt>
      <trkpt lat="44.3087" lon="6.20024">
        <ele>1781.1999511719</ele>
        <time>2021-09-13T08:11:21Z</time>
      </trkpt>
      <trkpt lat="44.3087" lon="6.20047">
        <ele>1784.1999511719</ele>
        <time>2021-09-13T08:11:45Z</time>
      </trkpt>
      <trkpt lat="44.30869" lon="6.20063">
        <ele>1787.4000244141</ele>
        <time>2021-09-13T08:12:05Z</time>
      </trkpt>
      <trkpt lat="44.30866" lon="6.20083">
        <ele>1790.4000244141</ele>
        <time>2021-09-13T08:12:25Z</time>
      </trkpt>
      <trkpt lat="44.30862" lon="6.20097">
        <ele>1792.8000488281</ele>
        <time>2021-09-13T08:12:53Z</time>
      </trkpt>
      <trkpt lat="44.3086" lon="6.2012">
        <ele>1795.8000488281</ele>
        <time>2021-09-13T08:13:19Z</time>
      </trkpt>
      <trkpt lat="44.3086" lon="6.20141">
        <ele>1798.8000488281</ele>
        <time>2021-09-13T08:13:37Z</time>
      </trkpt>
      <trkpt lat="44.3086" lon="6.20162">
        <ele>1802</ele>
        <time>2021-09-13T08:13:59Z</time>
      </trkpt>
      <trkpt lat="44.3086" lon="6.20169">
        <ele>1803.1999511719</ele>
        <time>2021-09-13T08:14:07Z</time>
      </trkpt>
      <trkpt lat="44.3087" lon="6.20143">
        <ele>1806.1999511719</ele>
        <time>2021-09-13T08:14:32Z</time>
      </trkpt>
      <trkpt lat="44.30882" lon="6.20119">
        <ele>1808.1999511719</ele>
        <time>2021-09-13T08:14:59Z</time>
      </trkpt>
      <trkpt lat="44.30887" lon="6.2011">
        <ele>1808.5999755859</ele>
        <time>2021-09-13T08:15:21Z</time>
      </trkpt>
      <trkpt lat="44.30891" lon="6.201">
        <ele>1809</ele>
        <time>2021-09-13T08:15:38Z</time>
      </trkpt>
      <trkpt lat="44.30899" lon="6.20091">
        <ele>1809.1999511719</ele>
        <time>2021-09-13T08:15:57Z</time>
      </trkpt>
      <trkpt lat="44.30911" lon="6.20076">
        <ele>1810.4000244141</ele>
        <time>2021-09-13T08:16:18Z</time>
      </trkpt>
      <trkpt lat="44.30912" lon="6.20075">
        <ele>1810.4000244141</ele>
        <time>2021-09-13T08:16:19Z</time>
      </trkpt>
      <trkpt lat="44.30926" lon="6.20059">
        <ele>1811.4000244141</ele>
        <time>2021-09-13T08:16:38Z</time>
      </trkpt>
      <trkpt lat="44.30937" lon="6.2005">
        <ele>1812.8000488281</ele>
        <time>2021-09-13T08:17:00Z</time>
      </trkpt>
      <trkpt lat="44.30939" lon="6.2005">
        <ele>1813</ele>
        <time>2021-09-13T08:17:25Z</time>
      </trkpt>
      <trkpt lat="44.30936" lon="6.2005">
        <ele>1813</ele>
        <time>2021-09-13T08:18:01Z</time>
      </trkpt>
      <trkpt lat="44.30938" lon="6.20051">
        <ele>1813.4000244141</ele>
        <time>2021-09-13T08:18:31Z</time>
      </trkpt>
      <trkpt lat="44.30932" lon="6.20079">
        <ele>1815.1999511719</ele>
        <time>2021-09-13T08:18:57Z</time>
      </trkpt>
      <trkpt lat="44.30931" lon="6.20093">
        <ele>1818</ele>
        <time>2021-09-13T08:19:19Z</time>
      </trkpt>
      <trkpt lat="44.30929" lon="6.201">
        <ele>1818.4000244141</ele>
        <time>2021-09-13T08:20:01Z</time>
      </trkpt>
      <trkpt lat="44.30929" lon="6.2013">
        <ele>1820.5999755859</ele>
        <time>2021-09-13T08:20:28Z</time>
      </trkpt>
      <trkpt lat="44.30926" lon="6.20152">
        <ele>1823.5999755859</ele>
        <time>2021-09-13T08:20:51Z</time>
      </trkpt>
      <trkpt lat="44.30923" lon="6.20174">
        <ele>1826.5999755859</ele>
        <time>2021-09-13T08:21:15Z</time>
      </trkpt>
      <trkpt lat="44.30918" lon="6.20193">
        <ele>1828.8000488281</ele>
        <time>2021-09-13T08:21:42Z</time>
      </trkpt>
      <trkpt lat="44.30916" lon="6.2022">
        <ele>1832</ele>
        <time>2021-09-13T08:22:09Z</time>
      </trkpt>
      <trkpt lat="44.3091" lon="6.2025">
        <ele>1835.1999511719</ele>
        <time>2021-09-13T08:22:39Z</time>
      </trkpt>
      <trkpt lat="44.30905" lon="6.2027">
        <ele>1838.1999511719</ele>
        <time>2021-09-13T08:23:06Z</time>
      </trkpt>
      <trkpt lat="44.30907" lon="6.20282">
        <ele>1839</ele>
        <time>2021-09-13T08:23:20Z</time>
      </trkpt>
      <trkpt lat="44.30907" lon="6.20304">
        <ele>1840.8000488281</ele>
        <time>2021-09-13T08:23:42Z</time>
      </trkpt>
      <trkpt lat="44.30907" lon="6.20328">
        <ele>1842.5999755859</ele>
        <time>2021-09-13T08:24:05Z</time>
      </trkpt>
      <trkpt lat="44.30901" lon="6.20349">
        <ele>1845.5999755859</ele>
        <time>2021-09-13T08:24:30Z</time>
      </trkpt>
      <trkpt lat="44.30901" lon="6.20363">
        <ele>1848.5999755859</ele>
        <time>2021-09-13T08:24:48Z</time>
      </trkpt>
      <trkpt lat="44.30903" lon="6.2038">
        <ele>1851.8000488281</ele>
        <time>2021-09-13T08:25:08Z</time>
      </trkpt>
      <trkpt lat="44.30907" lon="6.20395">
        <ele>1854.8000488281</ele>
        <time>2021-09-13T08:25:30Z</time>
      </trkpt>
      <trkpt lat="44.30914" lon="6.20404">
        <ele>1856.1999511719</ele>
        <time>2021-09-13T08:25:57Z</time>
      </trkpt>
      <trkpt lat="44.30919" lon="6.20415">
        <ele>1857.4000244141</ele>
        <time>2021-09-13T08:26:17Z</time>
      </trkpt>
      <trkpt lat="44.30921" lon="6.20418">
        <ele>1858</ele>
        <time>2021-09-13T08:26:42Z</time>
      </trkpt>
      <trkpt lat="44.3092" lon="6.20424">
        <ele>1858.8000488281</ele>
        <time>2021-09-13T08:27:02Z</time>
      </trkpt>
      <trkpt lat="44.30921" lon="6.20425">
        <ele>1859</ele>
        <time>2021-09-13T08:27:25Z</time>
      </trkpt>
      <trkpt lat="44.30922" lon="6.20427">
        <ele>1859.1999511719</ele>
        <time>2021-09-13T08:27:57Z</time>
      </trkpt>
      <trkpt lat="44.30922" lon="6.20427">
        <ele>1859.1999511719</ele>
        <time>2021-09-13T08:29:49Z</time>
      </trkpt>
      <trkpt lat="44.30921" lon="6.20438">
        <ele>1859.5999755859</ele>
        <time>2021-09-13T08:30:15Z</time>
      </trkpt>
      <trkpt lat="44.30917" lon="6.20461">
        <ele>1861.4000244141</ele>
        <time>2021-09-13T08:30:39Z</time>
      </trkpt>
      <trkpt lat="44.30907" lon="6.2048">
        <ele>1863</ele>
        <time>2021-09-13T08:31:01Z</time>
      </trkpt>
      <trkpt lat="44.309" lon="6.205">
        <ele>1864.8000488281</ele>
        <time>2021-09-13T08:31:22Z</time>
      </trkpt>
      <trkpt lat="44.30892" lon="6.20525">
        <ele>1867.1999511719</ele>
        <time>2021-09-13T08:31:46Z</time>
      </trkpt>
      <trkpt lat="44.30882" lon="6.20551">
        <ele>1869.5999755859</ele>
        <time>2021-09-13T08:32:11Z</time>
      </trkpt>
      <trkpt lat="44.3088" lon="6.2056">
        <ele>1870.4000244141</ele>
        <time>2021-09-13T08:32:19Z</time>
      </trkpt>
      <trkpt lat="44.30872" lon="6.20586">
        <ele>1873.4000244141</ele>
        <time>2021-09-13T08:32:44Z</time>
      </trkpt>
      <trkpt lat="44.30867" lon="6.20604">
        <ele>1875.5999755859</ele>
        <time>2021-09-13T08:33:03Z</time>
      </trkpt>
      <trkpt lat="44.30862" lon="6.20625">
        <ele>1878.4000244141</ele>
        <time>2021-09-13T08:33:25Z</time>
      </trkpt>
      <trkpt lat="44.30854" lon="6.20648">
        <ele>1881.1999511719</ele>
        <time>2021-09-13T08:33:51Z</time>
      </trkpt>
      <trkpt lat="44.30849" lon="6.20671">
        <ele>1884.1999511719</ele>
        <time>2021-09-13T08:34:17Z</time>
      </trkpt>
      <trkpt lat="44.30839" lon="6.20695">
        <ele>1886.8000488281</ele>
        <time>2021-09-13T08:34:43Z</time>
      </trkpt>
      <trkpt lat="44.30834" lon="6.20719">
        <ele>1889.5999755859</ele>
        <time>2021-09-13T08:35:07Z</time>
      </trkpt>
      <trkpt lat="44.30831" lon="6.20732">
        <ele>1891.1999511719</ele>
        <time>2021-09-13T08:35:26Z</time>
      </trkpt>
      <trkpt lat="44.30829" lon="6.20746">
        <ele>1892.5999755859</ele>
        <time>2021-09-13T08:36:06Z</time>
      </trkpt>
      <trkpt lat="44.30824" lon="6.20768">
        <ele>1895.5999755859</ele>
        <time>2021-09-13T08:36:27Z</time>
      </trkpt>
      <trkpt lat="44.3082" lon="6.20786">
        <ele>1898.8000488281</ele>
        <time>2021-09-13T08:36:48Z</time>
      </trkpt>
      <trkpt lat="44.30819" lon="6.20796">
        <ele>1901.8000488281</ele>
        <time>2021-09-13T08:37:01Z</time>
      </trkpt>
      <trkpt lat="44.30817" lon="6.20816">
        <ele>1904.8000488281</ele>
        <time>2021-09-13T08:37:24Z</time>
      </trkpt>
      <trkpt lat="44.30813" lon="6.20835">
        <ele>1908</ele>
        <time>2021-09-13T08:37:49Z</time>
      </trkpt>
      <trkpt lat="44.3081" lon="6.20851">
        <ele>1911</ele>
        <time>2021-09-13T08:38:11Z</time>
      </trkpt>
      <trkpt lat="44.30806" lon="6.20866">
        <ele>1914.1999511719</ele>
        <time>2021-09-13T08:38:32Z</time>
      </trkpt>
      <trkpt lat="44.30805" lon="6.20884">
        <ele>1917.1999511719</ele>
        <time>2021-09-13T08:38:55Z</time>
      </trkpt>
      <trkpt lat="44.30804" lon="6.20898">
        <ele>1920.1999511719</ele>
        <time>2021-09-13T08:39:16Z</time>
      </trkpt>
      <trkpt lat="44.30804" lon="6.20906">
        <ele>1922.5999755859</ele>
        <time>2021-09-13T08:39:51Z</time>
      </trkpt>
      <trkpt lat="44.30794" lon="6.20918">
        <ele>1923.8000488281</ele>
        <time>2021-09-13T08:40:12Z</time>
      </trkpt>
      <trkpt lat="44.30783" lon="6.20942">
        <ele>1926.1999511719</ele>
        <time>2021-09-13T08:40:36Z</time>
      </trkpt>
      <trkpt lat="44.30775" lon="6.20964">
        <ele>1929.1999511719</ele>
        <time>2021-09-13T08:41:00Z</time>
      </trkpt>
      <trkpt lat="44.3077" lon="6.20983">
        <ele>1932.4000244141</ele>
        <time>2021-09-13T08:41:22Z</time>
      </trkpt>
      <trkpt lat="44.30764" lon="6.21">
        <ele>1935.4000244141</ele>
        <time>2021-09-13T08:41:43Z</time>
      </trkpt>
      <trkpt lat="44.30759" lon="6.21012">
        <ele>1938.5999755859</ele>
        <time>2021-09-13T08:42:04Z</time>
      </trkpt>
      <trkpt lat="44.30755" lon="6.21023">
        <ele>1941.8000488281</ele>
        <time>2021-09-13T08:42:23Z</time>
      </trkpt>
      <trkpt lat="44.30752" lon="6.21034">
        <ele>1945</ele>
        <time>2021-09-13T08:42:42Z</time>
      </trkpt>
      <trkpt lat="44.30749" lon="6.21048">
        <ele>1948.1999511719</ele>
        <time>2021-09-13T08:43:04Z</time>
      </trkpt>
      <trkpt lat="44.30746" lon="6.21055">
        <ele>1949.8000488281</ele>
        <time>2021-09-13T08:43:25Z</time>
      </trkpt>
      <trkpt lat="44.30741" lon="6.21067">
        <ele>1953</ele>
        <time>2021-09-13T08:43:46Z</time>
      </trkpt>
      <trkpt lat="44.30739" lon="6.21079">
        <ele>1956</ele>
        <time>2021-09-13T08:44:04Z</time>
      </trkpt>
      <trkpt lat="44.30735" lon="6.21091">
        <ele>1959</ele>
        <time>2021-09-13T08:44:21Z</time>
      </trkpt>
      <trkpt lat="44.30732" lon="6.21105">
        <ele>1962</ele>
        <time>2021-09-13T08:44:41Z</time>
      </trkpt>
      <trkpt lat="44.30733" lon="6.21108">
        <ele>1964</ele>
        <time>2021-09-13T08:45:03Z</time>
      </trkpt>
      <trkpt lat="44.30732" lon="6.21108">
        <ele>1964.1999511719</ele>
        <time>2021-09-13T08:45:44Z</time>
      </trkpt>
      <trkpt lat="44.30731" lon="6.21107">
        <ele>1964.1999511719</ele>
        <time>2021-09-13T08:46:09Z</time>
      </trkpt>
      <trkpt lat="44.30732" lon="6.21108">
        <ele>1964.1999511719</ele>
        <time>2021-09-13T08:46:58Z</time>
      </trkpt>
      <trkpt lat="44.30731" lon="6.21112">
        <ele>1964.1999511719</ele>
        <time>2021-09-13T08:48:05Z</time>
      </trkpt>
      <trkpt lat="44.30727" lon="6.21129">
        <ele>1967.1999511719</ele>
        <time>2021-09-13T08:48:31Z</time>
      </trkpt>
      <trkpt lat="44.30724" lon="6.21141">
        <ele>1970.1999511719</ele>
        <time>2021-09-13T08:48:51Z</time>
      </trkpt>
      <trkpt lat="44.3072" lon="6.21151">
        <ele>1973.4000244141</ele>
        <time>2021-09-13T08:49:11Z</time>
      </trkpt>
      <trkpt lat="44.30717" lon="6.21159">
        <ele>1976.4000244141</ele>
        <time>2021-09-13T08:49:31Z</time>
      </trkpt>
      <trkpt lat="44.30713" lon="6.21166">
        <ele>1979.4000244141</ele>
        <time>2021-09-13T08:49:49Z</time>
      </trkpt>
      <trkpt lat="44.30711" lon="6.21176">
        <ele>1982.5999755859</ele>
        <time>2021-09-13T08:50:07Z</time>
      </trkpt>
      <trkpt lat="44.30706" lon="6.21187">
        <ele>1985.5999755859</ele>
        <time>2021-09-13T08:50:29Z</time>
      </trkpt>
      <trkpt lat="44.30701" lon="6.21202">
        <ele>1988.5999755859</ele>
        <time>2021-09-13T08:50:55Z</time>
      </trkpt>
      <trkpt lat="44.30696" lon="6.21215">
        <ele>1991.5999755859</ele>
        <time>2021-09-13T08:51:18Z</time>
      </trkpt>
      <trkpt lat="44.30694" lon="6.21224">
        <ele>1995</ele>
        <time>2021-09-13T08:51:35Z</time>
      </trkpt>
      <trkpt lat="44.3069" lon="6.21234">
        <ele>1998</ele>
        <time>2021-09-13T08:51:56Z</time>
      </trkpt>
      <trkpt lat="44.30687" lon="6.21242">
        <ele>2001</ele>
        <time>2021-09-13T08:52:14Z</time>
      </trkpt>
      <trkpt lat="44.30683" lon="6.2125">
        <ele>2002.8000488281</ele>
        <time>2021-09-13T08:52:47Z</time>
      </trkpt>
      <trkpt lat="44.3068" lon="6.21261">
        <ele>2006.1999511719</ele>
        <time>2021-09-13T08:53:09Z</time>
      </trkpt>
      <trkpt lat="44.30678" lon="6.21271">
        <ele>2009.1999511719</ele>
        <time>2021-09-13T08:53:28Z</time>
      </trkpt>
      <trkpt lat="44.30674" lon="6.21277">
        <ele>2012.4000244141</ele>
        <time>2021-09-13T08:53:44Z</time>
      </trkpt>
      <trkpt lat="44.30672" lon="6.21286">
        <ele>2015.4000244141</ele>
        <time>2021-09-13T08:54:06Z</time>
      </trkpt>
      <trkpt lat="44.30672" lon="6.21293">
        <ele>2018.5999755859</ele>
        <time>2021-09-13T08:54:25Z</time>
      </trkpt>
      <trkpt lat="44.3067" lon="6.21303">
        <ele>2021.8000488281</ele>
        <time>2021-09-13T08:54:46Z</time>
      </trkpt>
      <trkpt lat="44.30668" lon="6.21311">
        <ele>2024.8000488281</ele>
        <time>2021-09-13T08:55:04Z</time>
      </trkpt>
      <trkpt lat="44.30666" lon="6.21321">
        <ele>2028</ele>
        <time>2021-09-13T08:55:19Z</time>
      </trkpt>
      <trkpt lat="44.30672" lon="6.21336">
        <ele>2031.1999511719</ele>
        <time>2021-09-13T08:55:41Z</time>
      </trkpt>
      <trkpt lat="44.30681" lon="6.21352">
        <ele>2033.1999511719</ele>
        <time>2021-09-13T08:56:07Z</time>
      </trkpt>
      <trkpt lat="44.30683" lon="6.21355">
        <ele>2033.4000244141</ele>
        <time>2021-09-13T08:56:48Z</time>
      </trkpt>
      <trkpt lat="44.30687" lon="6.21358">
        <ele>2033.4000244141</ele>
        <time>2021-09-13T08:57:31Z</time>
      </trkpt>
      <trkpt lat="44.30692" lon="6.21369">
        <ele>2032.8000488281</ele>
        <time>2021-09-13T08:57:47Z</time>
      </trkpt>
      <trkpt lat="44.30693" lon="6.21369">
        <ele>2032.4000244141</ele>
        <time>2021-09-13T08:58:23Z</time>
      </trkpt>
      <trkpt lat="44.30699" lon="6.21377">
        <ele>2032.5999755859</ele>
        <time>2021-09-13T08:58:43Z</time>
      </trkpt>
      <trkpt lat="44.30707" lon="6.21391">
        <ele>2032.1999511719</ele>
        <time>2021-09-13T08:59:01Z</time>
      </trkpt>
      <trkpt lat="44.30707" lon="6.21389">
        <ele>2032.1999511719</ele>
        <time>2021-09-13T08:59:32Z</time>
      </trkpt>
      <trkpt lat="44.30707" lon="6.21389">
        <ele>2032.1999511719</ele>
        <time>2021-09-13T09:01:11Z</time>
      </trkpt>
      <trkpt lat="44.30708" lon="6.21389">
        <ele>2032.5999755859</ele>
        <time>2021-09-13T09:02:21Z</time>
      </trkpt>
      <trkpt lat="44.30703" lon="6.21382">
        <ele>2033.1999511719</ele>
        <time>2021-09-13T09:03:12Z</time>
      </trkpt>
      <trkpt lat="44.30691" lon="6.21363">
        <ele>2033.5999755859</ele>
        <time>2021-09-13T09:03:35Z</time>
      </trkpt>
      <trkpt lat="44.30688" lon="6.21356">
        <ele>2034.1999511719</ele>
        <time>2021-09-13T09:03:57Z</time>
      </trkpt>
      <trkpt lat="44.30684" lon="6.2135">
        <ele>2034.1999511719</ele>
        <time>2021-09-13T09:04:14Z</time>
      </trkpt>
      <trkpt lat="44.30682" lon="6.21344">
        <ele>2033.4000244141</ele>
        <time>2021-09-13T09:04:35Z</time>
      </trkpt>
      <trkpt lat="44.30673" lon="6.21329">
        <ele>2033.1999511719</ele>
        <time>2021-09-13T09:04:57Z</time>
      </trkpt>
      <trkpt lat="44.30667" lon="6.21323">
        <ele>2030.8000488281</ele>
        <time>2021-09-13T09:05:16Z</time>
      </trkpt>
      <trkpt lat="44.30663" lon="6.21321">
        <ele>2029</ele>
        <time>2021-09-13T09:05:42Z</time>
      </trkpt>
      <trkpt lat="44.30664" lon="6.2132">
        <ele>2029.1999511719</ele>
        <time>2021-09-13T09:06:06Z</time>
      </trkpt>
      <trkpt lat="44.30662" lon="6.2132">
        <ele>2028</ele>
        <time>2021-09-13T09:06:26Z</time>
      </trkpt>
      <trkpt lat="44.30664" lon="6.21322">
        <ele>2027.8000488281</ele>
        <time>2021-09-13T09:07:06Z</time>
      </trkpt>
      <trkpt lat="44.30671" lon="6.21329">
        <ele>2029.8000488281</ele>
        <time>2021-09-13T09:07:25Z</time>
      </trkpt>
      <trkpt lat="44.30682" lon="6.2135">
        <ele>2032.8000488281</ele>
        <time>2021-09-13T09:07:48Z</time>
      </trkpt>
      <trkpt lat="44.30689" lon="6.21366">
        <ele>2034.5999755859</ele>
        <time>2021-09-13T09:08:10Z</time>
      </trkpt>
      <trkpt lat="44.30691" lon="6.21366">
        <ele>2034.1999511719</ele>
        <time>2021-09-13T09:08:54Z</time>
      </trkpt>
      <trkpt lat="44.3069" lon="6.21364">
        <ele>2033.1999511719</ele>
        <time>2021-09-13T09:10:36Z</time>
      </trkpt>
      <trkpt lat="44.3069" lon="6.21366">
        <ele>2033</ele>
        <time>2021-09-13T09:12:32Z</time>
      </trkpt>
      <trkpt lat="44.3069" lon="6.21366">
        <ele>2033.8000488281</ele>
        <time>2021-09-13T09:13:14Z</time>
      </trkpt>
      <trkpt lat="44.30691" lon="6.21366">
        <ele>2032.4000244141</ele>
        <time>2021-09-13T09:13:47Z</time>
      </trkpt>
      <trkpt lat="44.30691" lon="6.21368">
        <ele>2033.4000244141</ele>
        <time>2021-09-13T09:15:19Z</time>
      </trkpt>
      <trkpt lat="44.30691" lon="6.21366">
        <ele>2033.8000488281</ele>
        <time>2021-09-13T09:15:42Z</time>
      </trkpt>
      <trkpt lat="44.30691" lon="6.21361">
        <ele>2034</ele>
        <time>2021-09-13T09:16:16Z</time>
      </trkpt>
      <trkpt lat="44.30686" lon="6.21355">
        <ele>2033.5999755859</ele>
        <time>2021-09-13T09:16:36Z</time>
      </trkpt>
      <trkpt lat="44.3068" lon="6.2134">
        <ele>2033</ele>
        <time>2021-09-13T09:16:56Z</time>
      </trkpt>
      <trkpt lat="44.30669" lon="6.21326">
        <ele>2030.8000488281</ele>
        <time>2021-09-13T09:17:22Z</time>
      </trkpt>
      <trkpt lat="44.30662" lon="6.21322">
        <ele>2028.8000488281</ele>
        <time>2021-09-13T09:17:42Z</time>
      </trkpt>
      <trkpt lat="44.30655" lon="6.21319">
        <ele>2026.8000488281</ele>
        <time>2021-09-13T09:17:58Z</time>
      </trkpt>
      <trkpt lat="44.30648" lon="6.21318">
        <ele>2023.4000244141</ele>
        <time>2021-09-13T09:18:15Z</time>
      </trkpt>
      <trkpt lat="44.30643" lon="6.21314">
        <ele>2020.4000244141</ele>
        <time>2021-09-13T09:18:29Z</time>
      </trkpt>
      <trkpt lat="44.30638" lon="6.21312">
        <ele>2017</ele>
        <time>2021-09-13T09:18:42Z</time>
      </trkpt>
      <trkpt lat="44.30633" lon="6.2131">
        <ele>2014</ele>
        <time>2021-09-13T09:19:02Z</time>
      </trkpt>
      <trkpt lat="44.30626" lon="6.21309">
        <ele>2010.8000488281</ele>
        <time>2021-09-13T09:19:22Z</time>
      </trkpt>
      <trkpt lat="44.30619" lon="6.21309">
        <ele>2008</ele>
        <time>2021-09-13T09:19:43Z</time>
      </trkpt>
      <trkpt lat="44.30611" lon="6.21308">
        <ele>2005.5999755859</ele>
        <time>2021-09-13T09:20:04Z</time>
      </trkpt>
      <trkpt lat="44.30606" lon="6.21308">
        <ele>2002.5999755859</ele>
        <time>2021-09-13T09:20:26Z</time>
      </trkpt>
      <trkpt lat="44.306" lon="6.21307">
        <ele>2001.1999511719</ele>
        <time>2021-09-13T09:20:46Z</time>
      </trkpt>
      <trkpt lat="44.30592" lon="6.21305">
        <ele>1998.4000244141</ele>
        <time>2021-09-13T09:21:11Z</time>
      </trkpt>
      <trkpt lat="44.30586" lon="6.21306">
        <ele>1995.4000244141</ele>
        <time>2021-09-13T09:21:37Z</time>
      </trkpt>
      <trkpt lat="44.30578" lon="6.21306">
        <ele>1993.4000244141</ele>
        <time>2021-09-13T09:22:01Z</time>
      </trkpt>
      <trkpt lat="44.3057" lon="6.21304">
        <ele>1990.8000488281</ele>
        <time>2021-09-13T09:22:23Z</time>
      </trkpt>
      <trkpt lat="44.30561" lon="6.21305">
        <ele>1988.1999511719</ele>
        <time>2021-09-13T09:22:42Z</time>
      </trkpt>
      <trkpt lat="44.30553" lon="6.21303">
        <ele>1986.1999511719</ele>
        <time>2021-09-13T09:22:58Z</time>
      </trkpt>
      <trkpt lat="44.30543" lon="6.21303">
        <ele>1983.1999511719</ele>
        <time>2021-09-13T09:23:18Z</time>
      </trkpt>
      <trkpt lat="44.30532" lon="6.21302">
        <ele>1980</ele>
        <time>2021-09-13T09:23:38Z</time>
      </trkpt>
      <trkpt lat="44.3052" lon="6.21301">
        <ele>1977</ele>
        <time>2021-09-13T09:23:57Z</time>
      </trkpt>
      <trkpt lat="44.30509" lon="6.21299">
        <ele>1974</ele>
        <time>2021-09-13T09:24:13Z</time>
      </trkpt>
      <trkpt lat="44.30495" lon="6.21299">
        <ele>1970.8000488281</ele>
        <time>2021-09-13T09:24:34Z</time>
      </trkpt>
      <trkpt lat="44.30482" lon="6.21299">
        <ele>1968.1999511719</ele>
        <time>2021-09-13T09:24:53Z</time>
      </trkpt>
      <trkpt lat="44.3047" lon="6.213">
        <ele>1965.5999755859</ele>
        <time>2021-09-13T09:25:11Z</time>
      </trkpt>
      <trkpt lat="44.3046" lon="6.21299">
        <ele>1962.5999755859</ele>
        <time>2021-09-13T09:25:31Z</time>
      </trkpt>
      <trkpt lat="44.30454" lon="6.213">
        <ele>1959.4000244141</ele>
        <time>2021-09-13T09:25:54Z</time>
      </trkpt>
      <trkpt lat="44.30447" lon="6.213">
        <ele>1956.4000244141</ele>
        <time>2021-09-13T09:26:17Z</time>
      </trkpt>
      <trkpt lat="44.3044" lon="6.21302">
        <ele>1954.5999755859</ele>
        <time>2021-09-13T09:26:49Z</time>
      </trkpt>
      <trkpt lat="44.30439" lon="6.21303">
        <ele>1954.4000244141</ele>
        <time>2021-09-13T09:26:50Z</time>
      </trkpt>
      <trkpt lat="44.30422" lon="6.21304">
        <ele>1952.8000488281</ele>
        <time>2021-09-13T09:27:09Z</time>
      </trkpt>
      <trkpt lat="44.30421" lon="6.21304">
        <ele>1952.8000488281</ele>
        <time>2021-09-13T09:27:10Z</time>
      </trkpt>
      <trkpt lat="44.30405" lon="6.21308">
        <ele>1951.4000244141</ele>
        <time>2021-09-13T09:27:29Z</time>
      </trkpt>
      <trkpt lat="44.30402" lon="6.2131">
        <ele>1950.8000488281</ele>
        <time>2021-09-13T09:27:33Z</time>
      </trkpt>
      <trkpt lat="44.30385" lon="6.21308">
        <ele>1949.1999511719</ele>
        <time>2021-09-13T09:27:51Z</time>
      </trkpt>
      <trkpt lat="44.30369" lon="6.21305">
        <ele>1949.4000244141</ele>
        <time>2021-09-13T09:28:11Z</time>
      </trkpt>
      <trkpt lat="44.30352" lon="6.21298">
        <ele>1948.5999755859</ele>
        <time>2021-09-13T09:28:31Z</time>
      </trkpt>
      <trkpt lat="44.30333" lon="6.2129">
        <ele>1948.8000488281</ele>
        <time>2021-09-13T09:28:53Z</time>
      </trkpt>
      <trkpt lat="44.30319" lon="6.21279">
        <ele>1949</ele>
        <time>2021-09-13T09:29:11Z</time>
      </trkpt>
      <trkpt lat="44.30316" lon="6.21278">
        <ele>1948.4000244141</ele>
        <time>2021-09-13T09:29:38Z</time>
      </trkpt>
      <trkpt lat="44.30312" lon="6.21275">
        <ele>1948.1999511719</ele>
        <time>2021-09-13T09:30:06Z</time>
      </trkpt>
      <trkpt lat="44.3031" lon="6.21274">
        <ele>1948</ele>
        <time>2021-09-13T09:30:37Z</time>
      </trkpt>
      <trkpt lat="44.30286" lon="6.21275">
        <ele>1947</ele>
        <time>2021-09-13T09:30:59Z</time>
      </trkpt>
      <trkpt lat="44.30281" lon="6.21276">
        <ele>1947.4000244141</ele>
        <time>2021-09-13T09:31:04Z</time>
      </trkpt>
      <trkpt lat="44.30273" lon="6.21278">
        <ele>1948.4000244141</ele>
        <time>2021-09-13T09:31:12Z</time>
      </trkpt>
      <trkpt lat="44.30271" lon="6.21279">
        <ele>1948.5999755859</ele>
        <time>2021-09-13T09:31:14Z</time>
      </trkpt>
      <trkpt lat="44.30252" lon="6.21282">
        <ele>1949.4000244141</ele>
        <time>2021-09-13T09:31:31Z</time>
      </trkpt>
      <trkpt lat="44.3023" lon="6.21286">
        <ele>1949.4000244141</ele>
        <time>2021-09-13T09:31:52Z</time>
      </trkpt>
      <trkpt lat="44.30215" lon="6.21289">
        <ele>1949</ele>
        <time>2021-09-13T09:32:05Z</time>
      </trkpt>
      <trkpt lat="44.30196" lon="6.21295">
        <ele>1947.8000488281</ele>
        <time>2021-09-13T09:32:21Z</time>
      </trkpt>
      <trkpt lat="44.30179" lon="6.21303">
        <ele>1946.1999511719</ele>
        <time>2021-09-13T09:32:37Z</time>
      </trkpt>
      <trkpt lat="44.30159" lon="6.21305">
        <ele>1943.5999755859</ele>
        <time>2021-09-13T09:32:55Z</time>
      </trkpt>
      <trkpt lat="44.30142" lon="6.21306">
        <ele>1940.5999755859</ele>
        <time>2021-09-13T09:33:11Z</time>
      </trkpt>
      <trkpt lat="44.30138" lon="6.21307">
        <ele>1939.4000244141</ele>
        <time>2021-09-13T09:33:16Z</time>
      </trkpt>
      <trkpt lat="44.30128" lon="6.21312">
        <ele>1938.5999755859</ele>
        <time>2021-09-13T09:33:27Z</time>
      </trkpt>
      <trkpt lat="44.30118" lon="6.21317">
        <ele>1938.1999511719</ele>
        <time>2021-09-13T09:33:37Z</time>
      </trkpt>
      <trkpt lat="44.30109" lon="6.21322">
        <ele>1938</ele>
        <time>2021-09-13T09:33:45Z</time>
      </trkpt>
      <trkpt lat="44.30089" lon="6.21337">
        <ele>1937.8000488281</ele>
        <time>2021-09-13T09:34:05Z</time>
      </trkpt>
      <trkpt lat="44.3007" lon="6.21348">
        <ele>1939.1999511719</ele>
        <time>2021-09-13T09:34:27Z</time>
      </trkpt>
      <trkpt lat="44.30053" lon="6.21354">
        <ele>1941.5999755859</ele>
        <time>2021-09-13T09:34:48Z</time>
      </trkpt>
      <trkpt lat="44.30039" lon="6.21355">
        <ele>1942.5999755859</ele>
        <time>2021-09-13T09:35:04Z</time>
      </trkpt>
      <trkpt lat="44.30019" lon="6.21352">
        <ele>1943.8000488281</ele>
        <time>2021-09-13T09:35:24Z</time>
      </trkpt>
      <trkpt lat="44.30004" lon="6.21353">
        <ele>1945.5999755859</ele>
        <time>2021-09-13T09:35:43Z</time>
      </trkpt>
      <trkpt lat="44.29989" lon="6.21354">
        <ele>1947.8000488281</ele>
        <time>2021-09-13T09:36:01Z</time>
      </trkpt>
      <trkpt lat="44.29982" lon="6.21354">
        <ele>1950</ele>
        <time>2021-09-13T09:36:17Z</time>
      </trkpt>
      <trkpt lat="44.29974" lon="6.21354">
        <ele>1951.4000244141</ele>
        <time>2021-09-13T09:36:33Z</time>
      </trkpt>
      <trkpt lat="44.29972" lon="6.21354">
        <ele>1952.4000244141</ele>
        <time>2021-09-13T09:36:55Z</time>
      </trkpt>
      <trkpt lat="44.2997" lon="6.21354">
        <ele>1952.4000244141</ele>
        <time>2021-09-13T09:37:18Z</time>
      </trkpt>
      <trkpt lat="44.29957" lon="6.2135">
        <ele>1953.8000488281</ele>
        <time>2021-09-13T09:37:36Z</time>
      </trkpt>
      <trkpt lat="44.29955" lon="6.21348">
        <ele>1954</ele>
        <time>2021-09-13T09:37:39Z</time>
      </trkpt>
      <trkpt lat="44.29938" lon="6.21341">
        <ele>1956</ele>
        <time>2021-09-13T09:38:00Z</time>
      </trkpt>
      <trkpt lat="44.29926" lon="6.21333">
        <ele>1957.5999755859</ele>
        <time>2021-09-13T09:38:14Z</time>
      </trkpt>
      <trkpt lat="44.29913" lon="6.21324">
        <ele>1959.8000488281</ele>
        <time>2021-09-13T09:38:32Z</time>
      </trkpt>
      <trkpt lat="44.29907" lon="6.21319">
        <ele>1961</ele>
        <time>2021-09-13T09:38:42Z</time>
      </trkpt>
      <trkpt lat="44.29898" lon="6.21311">
        <ele>1963</ele>
        <time>2021-09-13T09:38:57Z</time>
      </trkpt>
      <trkpt lat="44.29887" lon="6.21301">
        <ele>1966.1999511719</ele>
        <time>2021-09-13T09:39:17Z</time>
      </trkpt>
      <trkpt lat="44.29878" lon="6.21292">
        <ele>1968.4000244141</ele>
        <time>2021-09-13T09:39:30Z</time>
      </trkpt>
      <trkpt lat="44.29866" lon="6.21283">
        <ele>1971.4000244141</ele>
        <time>2021-09-13T09:39:49Z</time>
      </trkpt>
      <trkpt lat="44.29853" lon="6.21273">
        <ele>1973.4000244141</ele>
        <time>2021-09-13T09:40:07Z</time>
      </trkpt>
      <trkpt lat="44.29841" lon="6.21264">
        <ele>1975.5999755859</ele>
        <time>2021-09-13T09:40:23Z</time>
      </trkpt>
      <trkpt lat="44.2983" lon="6.21258">
        <ele>1977.8000488281</ele>
        <time>2021-09-13T09:40:42Z</time>
      </trkpt>
      <trkpt lat="44.29817" lon="6.21251">
        <ele>1980.5999755859</ele>
        <time>2021-09-13T09:41:01Z</time>
      </trkpt>
      <trkpt lat="44.29807" lon="6.21248">
        <ele>1983.5999755859</ele>
        <time>2021-09-13T09:41:17Z</time>
      </trkpt>
      <trkpt lat="44.29796" lon="6.21247">
        <ele>1986.4000244141</ele>
        <time>2021-09-13T09:41:35Z</time>
      </trkpt>
      <trkpt lat="44.29789" lon="6.21246">
        <ele>1989.1999511719</ele>
        <time>2021-09-13T09:41:52Z</time>
      </trkpt>
      <trkpt lat="44.29781" lon="6.21244">
        <ele>1990.5999755859</ele>
        <time>2021-09-13T09:42:20Z</time>
      </trkpt>
      <trkpt lat="44.29773" lon="6.21245">
        <ele>1993.5999755859</ele>
        <time>2021-09-13T09:42:37Z</time>
      </trkpt>
      <trkpt lat="44.29766" lon="6.21246">
        <ele>1996.5999755859</ele>
        <time>2021-09-13T09:42:54Z</time>
      </trkpt>
      <trkpt lat="44.2976" lon="6.21245">
        <ele>1999.5999755859</ele>
        <time>2021-09-13T09:43:13Z</time>
      </trkpt>
      <trkpt lat="44.29753" lon="6.21247">
        <ele>2002.5999755859</ele>
        <time>2021-09-13T09:43:31Z</time>
      </trkpt>
      <trkpt lat="44.2975" lon="6.21247">
        <ele>2005.1999511719</ele>
        <time>2021-09-13T09:44:02Z</time>
      </trkpt>
      <trkpt lat="44.29742" lon="6.21247">
        <ele>2006.5999755859</ele>
        <time>2021-09-13T09:44:25Z</time>
      </trkpt>
      <trkpt lat="44.29734" lon="6.21248">
        <ele>2009.8000488281</ele>
        <time>2021-09-13T09:44:47Z</time>
      </trkpt>
      <trkpt lat="44.29723" lon="6.21245">
        <ele>2012.8000488281</ele>
        <time>2021-09-13T09:45:11Z</time>
      </trkpt>
      <trkpt lat="44.29714" lon="6.21244">
        <ele>2015.8000488281</ele>
        <time>2021-09-13T09:45:31Z</time>
      </trkpt>
      <trkpt lat="44.29708" lon="6.21245">
        <ele>2019</ele>
        <time>2021-09-13T09:45:48Z</time>
      </trkpt>
      <trkpt lat="44.29702" lon="6.21247">
        <ele>2021.1999511719</ele>
        <time>2021-09-13T09:46:06Z</time>
      </trkpt>
      <trkpt lat="44.29692" lon="6.21245">
        <ele>2024.4000244141</ele>
        <time>2021-09-13T09:46:27Z</time>
      </trkpt>
      <trkpt lat="44.29686" lon="6.21246">
        <ele>2027.4000244141</ele>
        <time>2021-09-13T09:46:46Z</time>
      </trkpt>
      <trkpt lat="44.2968" lon="6.21246">
        <ele>2030.5999755859</ele>
        <time>2021-09-13T09:47:08Z</time>
      </trkpt>
      <trkpt lat="44.29676" lon="6.21249">
        <ele>2033.8000488281</ele>
        <time>2021-09-13T09:47:32Z</time>
      </trkpt>
      <trkpt lat="44.29671" lon="6.21251">
        <ele>2036.8000488281</ele>
        <time>2021-09-13T09:47:51Z</time>
      </trkpt>
      <trkpt lat="44.29666" lon="6.21254">
        <ele>2039.8000488281</ele>
        <time>2021-09-13T09:48:10Z</time>
      </trkpt>
      <trkpt lat="44.29662" lon="6.21259">
        <ele>2042.8000488281</ele>
        <time>2021-09-13T09:48:26Z</time>
      </trkpt>
      <trkpt lat="44.29658" lon="6.21259">
        <ele>2045.8000488281</ele>
        <time>2021-09-13T09:48:43Z</time>
      </trkpt>
      <trkpt lat="44.29651" lon="6.21258">
        <ele>2049</ele>
        <time>2021-09-13T09:49:04Z</time>
      </trkpt>
      <trkpt lat="44.29643" lon="6.21259">
        <ele>2052.1999511719</ele>
        <time>2021-09-13T09:49:21Z</time>
      </trkpt>
      <trkpt lat="44.29636" lon="6.21259">
        <ele>2055.1999511719</ele>
        <time>2021-09-13T09:49:40Z</time>
      </trkpt>
      <trkpt lat="44.29629" lon="6.2126">
        <ele>2058.3999023438</ele>
        <time>2021-09-13T09:49:57Z</time>
      </trkpt>
      <trkpt lat="44.29627" lon="6.21259">
        <ele>2060.3999023438</ele>
        <time>2021-09-13T09:50:28Z</time>
      </trkpt>
      <trkpt lat="44.29619" lon="6.21254">
        <ele>2062</ele>
        <time>2021-09-13T09:50:57Z</time>
      </trkpt>
      <trkpt lat="44.2961" lon="6.21245">
        <ele>2065</ele>
        <time>2021-09-13T09:51:16Z</time>
      </trkpt>
      <trkpt lat="44.29604" lon="6.21238">
        <ele>2067.8000488281</ele>
        <time>2021-09-13T09:51:36Z</time>
      </trkpt>
      <trkpt lat="44.29602" lon="6.21237">
        <ele>2070</ele>
        <time>2021-09-13T09:52:05Z</time>
      </trkpt>
      <trkpt lat="44.29599" lon="6.21228">
        <ele>2070</ele>
        <time>2021-09-13T09:52:28Z</time>
      </trkpt>
      <trkpt lat="44.29593" lon="6.21227">
        <ele>2069.8000488281</ele>
        <time>2021-09-13T09:52:40Z</time>
      </trkpt>
      <trkpt lat="44.2959" lon="6.21226">
        <ele>2069.6000976562</ele>
        <time>2021-09-13T09:53:06Z</time>
      </trkpt>
      <trkpt lat="44.29588" lon="6.21225">
        <ele>2068.8000488281</ele>
        <time>2021-09-13T09:53:32Z</time>
      </trkpt>
      <trkpt lat="44.29596" lon="6.21228">
        <ele>2069.3999023438</ele>
        <time>2021-09-13T09:53:51Z</time>
      </trkpt>
      <trkpt lat="44.29598" lon="6.21226">
        <ele>2069.3999023438</ele>
        <time>2021-09-13T09:56:45Z</time>
      </trkpt>
      <trkpt lat="44.296" lon="6.21235">
        <ele>2070.6000976562</ele>
        <time>2021-09-13T09:57:13Z</time>
      </trkpt>
      <trkpt lat="44.29603" lon="6.21245">
        <ele>2071.3999023438</ele>
        <time>2021-09-13T09:57:31Z</time>
      </trkpt>
      <trkpt lat="44.29603" lon="6.21246">
        <ele>2071.6000976562</ele>
        <time>2021-09-13T09:57:35Z</time>
      </trkpt>
      <trkpt lat="44.29603" lon="6.21239">
        <ele>2072</ele>
        <time>2021-09-13T09:57:57Z</time>
      </trkpt>
      <trkpt lat="44.29606" lon="6.21242">
        <ele>2071.8000488281</ele>
        <time>2021-09-13T09:58:21Z</time>
      </trkpt>
      <trkpt lat="44.29603" lon="6.21241">
        <ele>2072</ele>
        <time>2021-09-13T09:59:04Z</time>
      </trkpt>
      <trkpt lat="44.29604" lon="6.21242">
        <ele>2071.6000976562</ele>
        <time>2021-09-13T09:59:36Z</time>
      </trkpt>
      <trkpt lat="44.29603" lon="6.21241">
        <ele>2070.1999511719</ele>
        <time>2021-09-13T10:00:01Z</time>
      </trkpt>
      <trkpt lat="44.29604" lon="6.21239">
        <ele>2071</ele>
        <time>2021-09-13T10:00:16Z</time>
      </trkpt>
      <trkpt lat="44.29602" lon="6.21233">
        <ele>2070.8000488281</ele>
        <time>2021-09-13T10:00:35Z</time>
      </trkpt>
      <trkpt lat="44.29602" lon="6.21239">
        <ele>2070.6000976562</ele>
        <time>2021-09-13T10:00:57Z</time>
      </trkpt>
      <trkpt lat="44.29603" lon="6.21239">
        <ele>2071.1999511719</ele>
        <time>2021-09-13T10:01:35Z</time>
      </trkpt>
      <trkpt lat="44.29603" lon="6.21238">
        <ele>2071.1999511719</ele>
        <time>2021-09-13T10:01:44Z</time>
      </trkpt>
      <trkpt lat="44.29601" lon="6.21232">
        <ele>2070.8000488281</ele>
        <time>2021-09-13T10:01:56Z</time>
      </trkpt>
      <trkpt lat="44.29601" lon="6.21233">
        <ele>2070.6000976562</ele>
        <time>2021-09-13T10:02:05Z</time>
      </trkpt>
      <trkpt lat="44.296" lon="6.2123">
        <ele>2070.6000976562</ele>
        <time>2021-09-13T10:02:10Z</time>
      </trkpt>
      <trkpt lat="44.29598" lon="6.21226">
        <ele>2070.3999023438</ele>
        <time>2021-09-13T10:02:24Z</time>
      </trkpt>
      <trkpt lat="44.29598" lon="6.21224">
        <ele>2069.3999023438</ele>
        <time>2021-09-13T10:02:40Z</time>
      </trkpt>
      <trkpt lat="44.29598" lon="6.21225">
        <ele>2068.6000976562</ele>
        <time>2021-09-13T10:02:58Z</time>
      </trkpt>
      <trkpt lat="44.29598" lon="6.21224">
        <ele>2069.1999511719</ele>
        <time>2021-09-13T10:03:37Z</time>
      </trkpt>
      <trkpt lat="44.296" lon="6.21226">
        <ele>2068.6000976562</ele>
        <time>2021-09-13T10:04:25Z</time>
      </trkpt>
      <trkpt lat="44.296" lon="6.21225">
        <ele>2068.8000488281</ele>
        <time>2021-09-13T10:05:36Z</time>
      </trkpt>
      <trkpt lat="44.29598" lon="6.21223">
        <ele>2069</ele>
        <time>2021-09-13T10:06:14Z</time>
      </trkpt>
      <trkpt lat="44.29598" lon="6.21224">
        <ele>2068.6000976562</ele>
        <time>2021-09-13T10:08:16Z</time>
      </trkpt>
      <trkpt lat="44.29598" lon="6.21225">
        <ele>2068.1999511719</ele>
        <time>2021-09-13T10:09:45Z</time>
      </trkpt>
      <trkpt lat="44.29599" lon="6.21226">
        <ele>2068.1999511719</ele>
        <time>2021-09-13T10:10:43Z</time>
      </trkpt>
      <trkpt lat="44.29599" lon="6.21225">
        <ele>2068.3999023438</ele>
        <time>2021-09-13T10:11:24Z</time>
      </trkpt>
      <trkpt lat="44.29599" lon="6.21225">
        <ele>2068.1999511719</ele>
        <time>2021-09-13T10:12:25Z</time>
      </trkpt>
      <trkpt lat="44.29598" lon="6.21225">
        <ele>2067.6000976562</ele>
        <time>2021-09-13T10:20:47Z</time>
      </trkpt>
      <trkpt lat="44.29598" lon="6.21225">
        <ele>2067.6000976562</ele>
        <time>2021-09-13T10:24:12Z</time>
      </trkpt>
      <trkpt lat="44.29599" lon="6.21225">
        <ele>2067.8000488281</ele>
        <time>2021-09-13T10:25:30Z</time>
      </trkpt>
      <trkpt lat="44.29599" lon="6.21225">
        <ele>2067.8000488281</ele>
        <time>2021-09-13T10:25:36Z</time>
      </trkpt>
      <trkpt lat="44.29599" lon="6.21224">
        <ele>2068.1999511719</ele>
        <time>2021-09-13T10:26:21Z</time>
      </trkpt>
      <trkpt lat="44.29598" lon="6.21224">
        <ele>2068.1999511719</ele>
        <time>2021-09-13T10:27:16Z</time>
      </trkpt>
      <trkpt lat="44.29598" lon="6.21225">
        <ele>2068.1999511719</ele>
        <time>2021-09-13T10:31:00Z</time>
      </trkpt>
      <trkpt lat="44.29599" lon="6.21225">
        <ele>2067.8000488281</ele>
        <time>2021-09-13T10:34:41Z</time>
      </trkpt>
      <trkpt lat="44.29599" lon="6.21225">
        <ele>2067.1999511719</ele>
        <time>2021-09-13T10:37:33Z</time>
      </trkpt>
      <trkpt lat="44.29598" lon="6.21225">
        <ele>2067.1999511719</ele>
        <time>2021-09-13T10:40:17Z</time>
      </trkpt>
      <trkpt lat="44.29599" lon="6.21225">
        <ele>2066.6000976562</ele>
        <time>2021-09-13T10:40:57Z</time>
      </trkpt>
      <trkpt lat="44.29598" lon="6.21224">
        <ele>2066.3999023438</ele>
        <time>2021-09-13T10:42:30Z</time>
      </trkpt>
      <trkpt lat="44.29596" lon="6.21227">
        <ele>2067.6000976562</ele>
        <time>2021-09-13T10:43:06Z</time>
      </trkpt>
      <trkpt lat="44.29598" lon="6.21228">
        <ele>2068.1999511719</ele>
        <time>2021-09-13T10:43:46Z</time>
      </trkpt>
      <trkpt lat="44.29594" lon="6.21226">
        <ele>2068.3999023438</ele>
        <time>2021-09-13T10:44:14Z</time>
      </trkpt>
      <trkpt lat="44.29588" lon="6.21224">
        <ele>2067.3999023438</ele>
        <time>2021-09-13T10:44:43Z</time>
      </trkpt>
      <trkpt lat="44.29583" lon="6.21223">
        <ele>2067.3999023438</ele>
        <time>2021-09-13T10:45:13Z</time>
      </trkpt>
      <trkpt lat="44.29572" lon="6.21223">
        <ele>2065.3999023438</ele>
        <time>2021-09-13T10:45:36Z</time>
      </trkpt>
      <trkpt lat="44.29561" lon="6.21224">
        <ele>2062.1999511719</ele>
        <time>2021-09-13T10:45:54Z</time>
      </trkpt>
      <trkpt lat="44.29553" lon="6.21226">
        <ele>2059.1999511719</ele>
        <time>2021-09-13T10:46:04Z</time>
      </trkpt>
      <trkpt lat="44.29551" lon="6.21228">
        <ele>2057</ele>
        <time>2021-09-13T10:46:26Z</time>
      </trkpt>
      <trkpt lat="44.29542" lon="6.21232">
        <ele>2056.3999023438</ele>
        <time>2021-09-13T10:46:44Z</time>
      </trkpt>
      <trkpt lat="44.29532" lon="6.21237">
        <ele>2053.1999511719</ele>
        <time>2021-09-13T10:47:04Z</time>
      </trkpt>
      <trkpt lat="44.29525" lon="6.2124">
        <ele>2050.1999511719</ele>
        <time>2021-09-13T10:47:23Z</time>
      </trkpt>
      <trkpt lat="44.29517" lon="6.21245">
        <ele>2047.4000244141</ele>
        <time>2021-09-13T10:47:43Z</time>
      </trkpt>
      <trkpt lat="44.29514" lon="6.21241">
        <ele>2044.4000244141</ele>
        <time>2021-09-13T10:48:08Z</time>
      </trkpt>
      <trkpt lat="44.2951" lon="6.21242">
        <ele>2042.1999511719</ele>
        <time>2021-09-13T10:48:31Z</time>
      </trkpt>
      <trkpt lat="44.29506" lon="6.21243">
        <ele>2039.5999755859</ele>
        <time>2021-09-13T10:48:54Z</time>
      </trkpt>
      <trkpt lat="44.29499" lon="6.21247">
        <ele>2037.1999511719</ele>
        <time>2021-09-13T10:49:17Z</time>
      </trkpt>
      <trkpt lat="44.29493" lon="6.21251">
        <ele>2034</ele>
        <time>2021-09-13T10:49:40Z</time>
      </trkpt>
      <trkpt lat="44.29488" lon="6.21255">
        <ele>2031.5999755859</ele>
        <time>2021-09-13T10:50:05Z</time>
      </trkpt>
      <trkpt lat="44.29481" lon="6.21257">
        <ele>2029.1999511719</ele>
        <time>2021-09-13T10:50:31Z</time>
      </trkpt>
      <trkpt lat="44.29476" lon="6.21262">
        <ele>2026.4000244141</ele>
        <time>2021-09-13T10:50:51Z</time>
      </trkpt>
      <trkpt lat="44.29472" lon="6.21263">
        <ele>2024.4000244141</ele>
        <time>2021-09-13T10:51:18Z</time>
      </trkpt>
      <trkpt lat="44.29466" lon="6.21269">
        <ele>2021.5999755859</ele>
        <time>2021-09-13T10:51:41Z</time>
      </trkpt>
      <trkpt lat="44.29462" lon="6.21271">
        <ele>2020</ele>
        <time>2021-09-13T10:52:04Z</time>
      </trkpt>
      <trkpt lat="44.29456" lon="6.21271">
        <ele>2018</ele>
        <time>2021-09-13T10:52:22Z</time>
      </trkpt>
      <trkpt lat="44.29448" lon="6.21275">
        <ele>2015</ele>
        <time>2021-09-13T10:52:39Z</time>
      </trkpt>
      <trkpt lat="44.29443" lon="6.2128">
        <ele>2011.8000488281</ele>
        <time>2021-09-13T10:52:57Z</time>
      </trkpt>
      <trkpt lat="44.29438" lon="6.21283">
        <ele>2009.4000244141</ele>
        <time>2021-09-13T10:53:17Z</time>
      </trkpt>
      <trkpt lat="44.29431" lon="6.21287">
        <ele>2006.5999755859</ele>
        <time>2021-09-13T10:53:34Z</time>
      </trkpt>
      <trkpt lat="44.29425" lon="6.21295">
        <ele>2004</ele>
        <time>2021-09-13T10:53:53Z</time>
      </trkpt>
      <trkpt lat="44.29419" lon="6.21306">
        <ele>2001.1999511719</ele>
        <time>2021-09-13T10:54:14Z</time>
      </trkpt>
      <trkpt lat="44.2941" lon="6.21315">
        <ele>1998.8000488281</ele>
        <time>2021-09-13T10:54:32Z</time>
      </trkpt>
      <trkpt lat="44.29404" lon="6.21322">
        <ele>1995.5999755859</ele>
        <time>2021-09-13T10:54:47Z</time>
      </trkpt>
      <trkpt lat="44.29398" lon="6.21336">
        <ele>1993.8000488281</ele>
        <time>2021-09-13T10:55:05Z</time>
      </trkpt>
      <trkpt lat="44.29397" lon="6.2134">
        <ele>1992.5999755859</ele>
        <time>2021-09-13T10:55:23Z</time>
      </trkpt>
      <trkpt lat="44.29394" lon="6.21343">
        <ele>1992.5999755859</ele>
        <time>2021-09-13T10:56:04Z</time>
      </trkpt>
      <trkpt lat="44.29391" lon="6.21348">
        <ele>1991.8000488281</ele>
        <time>2021-09-13T10:56:25Z</time>
      </trkpt>
      <trkpt lat="44.29389" lon="6.21353">
        <ele>1990.4000244141</ele>
        <time>2021-09-13T10:56:49Z</time>
      </trkpt>
      <trkpt lat="44.29382" lon="6.21364">
        <ele>1989.1999511719</ele>
        <time>2021-09-13T10:57:16Z</time>
      </trkpt>
      <trkpt lat="44.29375" lon="6.21373">
        <ele>1986.1999511719</ele>
        <time>2021-09-13T10:57:33Z</time>
      </trkpt>
      <trkpt lat="44.29368" lon="6.21382">
        <ele>1983.1999511719</ele>
        <time>2021-09-13T10:57:51Z</time>
      </trkpt>
      <trkpt lat="44.29364" lon="6.21387">
        <ele>1980.1999511719</ele>
        <time>2021-09-13T10:58:05Z</time>
      </trkpt>
      <trkpt lat="44.29357" lon="6.21395">
        <ele>1977.1999511719</ele>
        <time>2021-09-13T10:58:25Z</time>
      </trkpt>
      <trkpt lat="44.29349" lon="6.21401">
        <ele>1974.4000244141</ele>
        <time>2021-09-13T10:58:46Z</time>
      </trkpt>
      <trkpt lat="44.29342" lon="6.21406">
        <ele>1971.5999755859</ele>
        <time>2021-09-13T10:59:03Z</time>
      </trkpt>
      <trkpt lat="44.29335" lon="6.21413">
        <ele>1968.5999755859</ele>
        <time>2021-09-13T10:59:19Z</time>
      </trkpt>
      <trkpt lat="44.29327" lon="6.2142">
        <ele>1965.4000244141</ele>
        <time>2021-09-13T10:59:38Z</time>
      </trkpt>
      <trkpt lat="44.29319" lon="6.21427">
        <ele>1962.4000244141</ele>
        <time>2021-09-13T10:59:57Z</time>
      </trkpt>
      <trkpt lat="44.2931" lon="6.2144">
        <ele>1959.1999511719</ele>
        <time>2021-09-13T11:00:18Z</time>
      </trkpt>
      <trkpt lat="44.29302" lon="6.21451">
        <ele>1955.8000488281</ele>
        <time>2021-09-13T11:00:37Z</time>
      </trkpt>
      <trkpt lat="44.29296" lon="6.21459">
        <ele>1953.1999511719</ele>
        <time>2021-09-13T11:00:52Z</time>
      </trkpt>
      <trkpt lat="44.29292" lon="6.21465">
        <ele>1952</ele>
        <time>2021-09-13T11:01:02Z</time>
      </trkpt>
      <trkpt lat="44.29286" lon="6.21476">
        <ele>1950</ele>
        <time>2021-09-13T11:01:17Z</time>
      </trkpt>
      <trkpt lat="44.29276" lon="6.21491">
        <ele>1947.5999755859</ele>
        <time>2021-09-13T11:01:37Z</time>
      </trkpt>
      <trkpt lat="44.29271" lon="6.215">
        <ele>1946.1999511719</ele>
        <time>2021-09-13T11:01:47Z</time>
      </trkpt>
      <trkpt lat="44.29264" lon="6.21524">
        <ele>1945.4000244141</ele>
        <time>2021-09-13T11:02:12Z</time>
      </trkpt>
      <trkpt lat="44.29262" lon="6.21532">
        <ele>1945.1999511719</ele>
        <time>2021-09-13T11:02:31Z</time>
      </trkpt>
      <trkpt lat="44.29261" lon="6.21535">
        <ele>1945.4000244141</ele>
        <time>2021-09-13T11:03:11Z</time>
      </trkpt>
      <trkpt lat="44.29258" lon="6.21541">
        <ele>1945.1999511719</ele>
        <time>2021-09-13T11:03:16Z</time>
      </trkpt>
      <trkpt lat="44.29247" lon="6.21559">
        <ele>1942.5999755859</ele>
        <time>2021-09-13T11:03:38Z</time>
      </trkpt>
      <trkpt lat="44.29244" lon="6.21563">
        <ele>1941.1999511719</ele>
        <time>2021-09-13T11:03:44Z</time>
      </trkpt>
      <trkpt lat="44.29237" lon="6.21582">
        <ele>1938.5999755859</ele>
        <time>2021-09-13T11:04:01Z</time>
      </trkpt>
      <trkpt lat="44.29231" lon="6.21602">
        <ele>1937.4000244141</ele>
        <time>2021-09-13T11:04:18Z</time>
      </trkpt>
      <trkpt lat="44.29223" lon="6.21624">
        <ele>1935.8000488281</ele>
        <time>2021-09-13T11:04:36Z</time>
      </trkpt>
      <trkpt lat="44.29217" lon="6.2164">
        <ele>1933.1999511719</ele>
        <time>2021-09-13T11:04:54Z</time>
      </trkpt>
      <trkpt lat="44.2921" lon="6.21657">
        <ele>1930.5999755859</ele>
        <time>2021-09-13T11:05:12Z</time>
      </trkpt>
      <trkpt lat="44.29203" lon="6.21672">
        <ele>1927.4000244141</ele>
        <time>2021-09-13T11:05:30Z</time>
      </trkpt>
      <trkpt lat="44.29196" lon="6.21686">
        <ele>1924.5999755859</ele>
        <time>2021-09-13T11:05:47Z</time>
      </trkpt>
      <trkpt lat="44.29189" lon="6.21704">
        <ele>1921.8000488281</ele>
        <time>2021-09-13T11:06:05Z</time>
      </trkpt>
      <trkpt lat="44.29181" lon="6.21727">
        <ele>1919.1999511719</ele>
        <time>2021-09-13T11:06:25Z</time>
      </trkpt>
      <trkpt lat="44.29173" lon="6.21739">
        <ele>1916.8000488281</ele>
        <time>2021-09-13T11:06:45Z</time>
      </trkpt>
      <trkpt lat="44.29167" lon="6.21754">
        <ele>1913.5999755859</ele>
        <time>2021-09-13T11:07:02Z</time>
      </trkpt>
      <trkpt lat="44.29165" lon="6.21761">
        <ele>1912.5999755859</ele>
        <time>2021-09-13T11:07:19Z</time>
      </trkpt>
      <trkpt lat="44.29162" lon="6.21767">
        <ele>1912.5999755859</ele>
        <time>2021-09-13T11:07:34Z</time>
      </trkpt>
      <trkpt lat="44.29158" lon="6.21775">
        <ele>1912.4000244141</ele>
        <time>2021-09-13T11:07:42Z</time>
      </trkpt>
      <trkpt lat="44.2915" lon="6.21796">
        <ele>1911.4000244141</ele>
        <time>2021-09-13T11:08:00Z</time>
      </trkpt>
      <trkpt lat="44.29143" lon="6.2182">
        <ele>1910.8000488281</ele>
        <time>2021-09-13T11:08:19Z</time>
      </trkpt>
      <trkpt lat="44.29135" lon="6.21841">
        <ele>1911.1999511719</ele>
        <time>2021-09-13T11:08:37Z</time>
      </trkpt>
      <trkpt lat="44.29131" lon="6.21856">
        <ele>1911.8000488281</ele>
        <time>2021-09-13T11:08:54Z</time>
      </trkpt>
      <trkpt lat="44.29129" lon="6.21865">
        <ele>1912.4000244141</ele>
        <time>2021-09-13T11:09:10Z</time>
      </trkpt>
      <trkpt lat="44.29122" lon="6.21877">
        <ele>1913</ele>
        <time>2021-09-13T11:09:27Z</time>
      </trkpt>
      <trkpt lat="44.29121" lon="6.21878">
        <ele>1913</ele>
        <time>2021-09-13T11:09:28Z</time>
      </trkpt>
      <trkpt lat="44.29103" lon="6.21898">
        <ele>1912.4000244141</ele>
        <time>2021-09-13T11:09:51Z</time>
      </trkpt>
      <trkpt lat="44.29093" lon="6.21918">
        <ele>1912</ele>
        <time>2021-09-13T11:10:09Z</time>
      </trkpt>
      <trkpt lat="44.2908" lon="6.21943">
        <ele>1911.5999755859</ele>
        <time>2021-09-13T11:10:31Z</time>
      </trkpt>
      <trkpt lat="44.2907" lon="6.21963">
        <ele>1912.4000244141</ele>
        <time>2021-09-13T11:10:51Z</time>
      </trkpt>
      <trkpt lat="44.29057" lon="6.21987">
        <ele>1913</ele>
        <time>2021-09-13T11:11:12Z</time>
      </trkpt>
      <trkpt lat="44.2905" lon="6.21997">
        <ele>1913</ele>
        <time>2021-09-13T11:11:23Z</time>
      </trkpt>
      <trkpt lat="44.29047" lon="6.22004">
        <ele>1913.1999511719</ele>
        <time>2021-09-13T11:11:51Z</time>
      </trkpt>
      <trkpt lat="44.29029" lon="6.22009">
        <ele>1912</ele>
        <time>2021-09-13T11:12:13Z</time>
      </trkpt>
      <trkpt lat="44.29016" lon="6.22014">
        <ele>1909.1999511719</ele>
        <time>2021-09-13T11:12:33Z</time>
      </trkpt>
      <trkpt lat="44.29005" lon="6.22023">
        <ele>1908</ele>
        <time>2021-09-13T11:12:51Z</time>
      </trkpt>
      <trkpt lat="44.28991" lon="6.22035">
        <ele>1906.8000488281</ele>
        <time>2021-09-13T11:13:11Z</time>
      </trkpt>
      <trkpt lat="44.28977" lon="6.22043">
        <ele>1906</ele>
        <time>2021-09-13T11:13:29Z</time>
      </trkpt>
      <trkpt lat="44.28967" lon="6.22049">
        <ele>1905.4000244141</ele>
        <time>2021-09-13T11:13:49Z</time>
      </trkpt>
      <trkpt lat="44.28954" lon="6.22054">
        <ele>1904.8000488281</ele>
        <time>2021-09-13T11:14:06Z</time>
      </trkpt>
      <trkpt lat="44.28942" lon="6.22059">
        <ele>1904</ele>
        <time>2021-09-13T11:14:26Z</time>
      </trkpt>
      <trkpt lat="44.28928" lon="6.22063">
        <ele>1903.1999511719</ele>
        <time>2021-09-13T11:14:50Z</time>
      </trkpt>
      <trkpt lat="44.28914" lon="6.22067">
        <ele>1902.1999511719</ele>
        <time>2021-09-13T11:15:09Z</time>
      </trkpt>
      <trkpt lat="44.28901" lon="6.22073">
        <ele>1901.4000244141</ele>
        <time>2021-09-13T11:15:28Z</time>
      </trkpt>
      <trkpt lat="44.28892" lon="6.22076">
        <ele>1901.1999511719</ele>
        <time>2021-09-13T11:15:46Z</time>
      </trkpt>
      <trkpt lat="44.28878" lon="6.22083">
        <ele>1900.5999755859</ele>
        <time>2021-09-13T11:16:07Z</time>
      </trkpt>
      <trkpt lat="44.28871" lon="6.22087">
        <ele>1901</ele>
        <time>2021-09-13T11:16:25Z</time>
      </trkpt>
      <trkpt lat="44.2887" lon="6.22087">
        <ele>1901</ele>
        <time>2021-09-13T11:16:31Z</time>
      </trkpt>
      <trkpt lat="44.28859" lon="6.22091">
        <ele>1901.4000244141</ele>
        <time>2021-09-13T11:16:52Z</time>
      </trkpt>
      <trkpt lat="44.28838" lon="6.22094">
        <ele>1901.1999511719</ele>
        <time>2021-09-13T11:17:13Z</time>
      </trkpt>
      <trkpt lat="44.28816" lon="6.22098">
        <ele>1899.4000244141</ele>
        <time>2021-09-13T11:17:38Z</time>
      </trkpt>
      <trkpt lat="44.28795" lon="6.22103">
        <ele>1897.4000244141</ele>
        <time>2021-09-13T11:18:05Z</time>
      </trkpt>
      <trkpt lat="44.28779" lon="6.22106">
        <ele>1896.5999755859</ele>
        <time>2021-09-13T11:18:26Z</time>
      </trkpt>
      <trkpt lat="44.28757" lon="6.22113">
        <ele>1894.5999755859</ele>
        <time>2021-09-13T11:18:55Z</time>
      </trkpt>
      <trkpt lat="44.28745" lon="6.22119">
        <ele>1894</ele>
        <time>2021-09-13T11:19:15Z</time>
      </trkpt>
      <trkpt lat="44.28731" lon="6.22126">
        <ele>1892.1999511719</ele>
        <time>2021-09-13T11:19:36Z</time>
      </trkpt>
      <trkpt lat="44.28717" lon="6.22135">
        <ele>1891.1999511719</ele>
        <time>2021-09-13T11:20:03Z</time>
      </trkpt>
      <trkpt lat="44.28714" lon="6.22137">
        <ele>1890.8000488281</ele>
        <time>2021-09-13T11:20:23Z</time>
      </trkpt>
      <trkpt lat="44.28702" lon="6.22143">
        <ele>1889.4000244141</ele>
        <time>2021-09-13T11:20:46Z</time>
      </trkpt>
      <trkpt lat="44.2869" lon="6.22149">
        <ele>1888.1999511719</ele>
        <time>2021-09-13T11:21:08Z</time>
      </trkpt>
      <trkpt lat="44.28679" lon="6.22154">
        <ele>1887.1999511719</ele>
        <time>2021-09-13T11:21:28Z</time>
      </trkpt>
      <trkpt lat="44.28667" lon="6.22155">
        <ele>1887</ele>
        <time>2021-09-13T11:21:44Z</time>
      </trkpt>
      <trkpt lat="44.28653" lon="6.22151">
        <ele>1884.8000488281</ele>
        <time>2021-09-13T11:22:09Z</time>
      </trkpt>
      <trkpt lat="44.28642" lon="6.22145">
        <ele>1883.8000488281</ele>
        <time>2021-09-13T11:22:28Z</time>
      </trkpt>
      <trkpt lat="44.2863" lon="6.2214">
        <ele>1884</ele>
        <time>2021-09-13T11:22:48Z</time>
      </trkpt>
      <trkpt lat="44.28626" lon="6.22139">
        <ele>1884</ele>
        <time>2021-09-13T11:22:58Z</time>
      </trkpt>
      <trkpt lat="44.28613" lon="6.2213">
        <ele>1883.1999511719</ele>
        <time>2021-09-13T11:23:16Z</time>
      </trkpt>
      <trkpt lat="44.28605" lon="6.22123">
        <ele>1881.5999755859</ele>
        <time>2021-09-13T11:23:32Z</time>
      </trkpt>
      <trkpt lat="44.28595" lon="6.22114">
        <ele>1880.8000488281</ele>
        <time>2021-09-13T11:23:49Z</time>
      </trkpt>
      <trkpt lat="44.28579" lon="6.22098">
        <ele>1878.5999755859</ele>
        <time>2021-09-13T11:24:12Z</time>
      </trkpt>
      <trkpt lat="44.28568" lon="6.22087">
        <ele>1877</ele>
        <time>2021-09-13T11:24:31Z</time>
      </trkpt>
      <trkpt lat="44.28557" lon="6.22075">
        <ele>1874.8000488281</ele>
        <time>2021-09-13T11:24:50Z</time>
      </trkpt>
      <trkpt lat="44.28545" lon="6.22064">
        <ele>1872.5999755859</ele>
        <time>2021-09-13T11:25:10Z</time>
      </trkpt>
      <trkpt lat="44.28537" lon="6.22056">
        <ele>1872.1999511719</ele>
        <time>2021-09-13T11:25:30Z</time>
      </trkpt>
      <trkpt lat="44.28529" lon="6.22055">
        <ele>1871.4000244141</ele>
        <time>2021-09-13T11:25:47Z</time>
      </trkpt>
      <trkpt lat="44.28522" lon="6.22048">
        <ele>1871.5999755859</ele>
        <time>2021-09-13T11:26:01Z</time>
      </trkpt>
      <trkpt lat="44.28511" lon="6.22033">
        <ele>1869.4000244141</ele>
        <time>2021-09-13T11:26:20Z</time>
      </trkpt>
      <trkpt lat="44.28499" lon="6.22016">
        <ele>1866.1999511719</ele>
        <time>2021-09-13T11:26:40Z</time>
      </trkpt>
      <trkpt lat="44.28489" lon="6.22002">
        <ele>1864</ele>
        <time>2021-09-13T11:26:56Z</time>
      </trkpt>
      <trkpt lat="44.2848" lon="6.21988">
        <ele>1860.8000488281</ele>
        <time>2021-09-13T11:27:10Z</time>
      </trkpt>
      <trkpt lat="44.28468" lon="6.2197">
        <ele>1857.5999755859</ele>
        <time>2021-09-13T11:27:27Z</time>
      </trkpt>
      <trkpt lat="44.28453" lon="6.21949">
        <ele>1855.4000244141</ele>
        <time>2021-09-13T11:27:48Z</time>
      </trkpt>
      <trkpt lat="44.28443" lon="6.21933">
        <ele>1854.8000488281</ele>
        <time>2021-09-13T11:28:03Z</time>
      </trkpt>
      <trkpt lat="44.28431" lon="6.21913">
        <ele>1854.5999755859</ele>
        <time>2021-09-13T11:28:23Z</time>
      </trkpt>
      <trkpt lat="44.28419" lon="6.21892">
        <ele>1854.1999511719</ele>
        <time>2021-09-13T11:28:44Z</time>
      </trkpt>
      <trkpt lat="44.28407" lon="6.2187">
        <ele>1854.8000488281</ele>
        <time>2021-09-13T11:29:08Z</time>
      </trkpt>
      <trkpt lat="44.28404" lon="6.21867">
        <ele>1855.1999511719</ele>
        <time>2021-09-13T11:29:33Z</time>
      </trkpt>
      <trkpt lat="44.28405" lon="6.21867">
        <ele>1855.1999511719</ele>
        <time>2021-09-13T11:30:11Z</time>
      </trkpt>
      <trkpt lat="44.28407" lon="6.21865">
        <ele>1855.5999755859</ele>
        <time>2021-09-13T11:31:12Z</time>
      </trkpt>
      <trkpt lat="44.28397" lon="6.2185">
        <ele>1855.5999755859</ele>
        <time>2021-09-13T11:31:34Z</time>
      </trkpt>
      <trkpt lat="44.28387" lon="6.2183">
        <ele>1856.4000244141</ele>
        <time>2021-09-13T11:31:54Z</time>
      </trkpt>
      <trkpt lat="44.28386" lon="6.21829">
        <ele>1856.4000244141</ele>
        <time>2021-09-13T11:31:55Z</time>
      </trkpt>
      <trkpt lat="44.28383" lon="6.21822">
        <ele>1856.4000244141</ele>
        <time>2021-09-13T11:32:00Z</time>
      </trkpt>
      <trkpt lat="44.28368" lon="6.21798">
        <ele>1855.5999755859</ele>
        <time>2021-09-13T11:32:21Z</time>
      </trkpt>
      <trkpt lat="44.28352" lon="6.21778">
        <ele>1855.8000488281</ele>
        <time>2021-09-13T11:32:42Z</time>
      </trkpt>
      <trkpt lat="44.28341" lon="6.21764">
        <ele>1855.1999511719</ele>
        <time>2021-09-13T11:32:57Z</time>
      </trkpt>
      <trkpt lat="44.28326" lon="6.21747">
        <ele>1855.4000244141</ele>
        <time>2021-09-13T11:33:16Z</time>
      </trkpt>
      <trkpt lat="44.28312" lon="6.21734">
        <ele>1855.4000244141</ele>
        <time>2021-09-13T11:33:36Z</time>
      </trkpt>
      <trkpt lat="44.28308" lon="6.2173">
        <ele>1855.4000244141</ele>
        <time>2021-09-13T11:33:41Z</time>
      </trkpt>
      <trkpt lat="44.28296" lon="6.2171">
        <ele>1855.4000244141</ele>
        <time>2021-09-13T11:34:01Z</time>
      </trkpt>
      <trkpt lat="44.28294" lon="6.21707">
        <ele>1855.8000488281</ele>
        <time>2021-09-13T11:34:23Z</time>
      </trkpt>
      <trkpt lat="44.28287" lon="6.21694">
        <ele>1855.5999755859</ele>
        <time>2021-09-13T11:34:39Z</time>
      </trkpt>
      <trkpt lat="44.2828" lon="6.21685">
        <ele>1855.5999755859</ele>
        <time>2021-09-13T11:34:57Z</time>
      </trkpt>
      <trkpt lat="44.28279" lon="6.21682">
        <ele>1856</ele>
        <time>2021-09-13T11:35:22Z</time>
      </trkpt>
      <trkpt lat="44.28269" lon="6.21674">
        <ele>1856</ele>
        <time>2021-09-13T11:35:40Z</time>
      </trkpt>
      <trkpt lat="44.2825" lon="6.21661">
        <ele>1856.5999755859</ele>
        <time>2021-09-13T11:36:04Z</time>
      </trkpt>
      <trkpt lat="44.28242" lon="6.21655">
        <ele>1856.8000488281</ele>
        <time>2021-09-13T11:36:22Z</time>
      </trkpt>
      <trkpt lat="44.28234" lon="6.21648">
        <ele>1856.5999755859</ele>
        <time>2021-09-13T11:36:32Z</time>
      </trkpt>
      <trkpt lat="44.28228" lon="6.21642">
        <ele>1856.1999511719</ele>
        <time>2021-09-13T11:36:40Z</time>
      </trkpt>
      <trkpt lat="44.28224" lon="6.21637">
        <ele>1855.8000488281</ele>
        <time>2021-09-13T11:36:45Z</time>
      </trkpt>
      <trkpt lat="44.28204" lon="6.21622">
        <ele>1853.5999755859</ele>
        <time>2021-09-13T11:37:08Z</time>
      </trkpt>
      <trkpt lat="44.28196" lon="6.21615">
        <ele>1853</ele>
        <time>2021-09-13T11:37:28Z</time>
      </trkpt>
      <trkpt lat="44.28187" lon="6.21606">
        <ele>1853.1999511719</ele>
        <time>2021-09-13T11:37:50Z</time>
      </trkpt>
      <trkpt lat="44.28175" lon="6.2159">
        <ele>1852.8000488281</ele>
        <time>2021-09-13T11:38:08Z</time>
      </trkpt>
      <trkpt lat="44.28162" lon="6.21579">
        <ele>1850.1999511719</ele>
        <time>2021-09-13T11:38:29Z</time>
      </trkpt>
      <trkpt lat="44.28156" lon="6.21574">
        <ele>1851.1999511719</ele>
        <time>2021-09-13T11:38:55Z</time>
      </trkpt>
      <trkpt lat="44.28151" lon="6.21573">
        <ele>1849.5999755859</ele>
        <time>2021-09-13T11:39:14Z</time>
      </trkpt>
      <trkpt lat="44.28151" lon="6.21572">
        <ele>1849.5999755859</ele>
        <time>2021-09-13T11:39:15Z</time>
      </trkpt>
      <trkpt lat="44.28133" lon="6.21553">
        <ele>1848.4000244141</ele>
        <time>2021-09-13T11:39:37Z</time>
      </trkpt>
      <trkpt lat="44.28121" lon="6.21533">
        <ele>1845.1999511719</ele>
        <time>2021-09-13T11:39:59Z</time>
      </trkpt>
      <trkpt lat="44.28106" lon="6.21518">
        <ele>1842.1999511719</ele>
        <time>2021-09-13T11:40:18Z</time>
      </trkpt>
      <trkpt lat="44.2809" lon="6.21506">
        <ele>1840.4000244141</ele>
        <time>2021-09-13T11:40:43Z</time>
      </trkpt>
      <trkpt lat="44.2808" lon="6.21497">
        <ele>1839.4000244141</ele>
        <time>2021-09-13T11:40:59Z</time>
      </trkpt>
      <trkpt lat="44.28064" lon="6.21487">
        <ele>1836.4000244141</ele>
        <time>2021-09-13T11:41:23Z</time>
      </trkpt>
      <trkpt lat="44.28051" lon="6.21477">
        <ele>1833.4000244141</ele>
        <time>2021-09-13T11:41:44Z</time>
      </trkpt>
      <trkpt lat="44.28047" lon="6.2147">
        <ele>1831</ele>
        <time>2021-09-13T11:42:02Z</time>
      </trkpt>
      <trkpt lat="44.28044" lon="6.21467">
        <ele>1830.5999755859</ele>
        <time>2021-09-13T11:42:18Z</time>
      </trkpt>
      <trkpt lat="44.28036" lon="6.2146">
        <ele>1827.4000244141</ele>
        <time>2021-09-13T11:42:35Z</time>
      </trkpt>
      <trkpt lat="44.28035" lon="6.21448">
        <ele>1824.4000244141</ele>
        <time>2021-09-13T11:42:52Z</time>
      </trkpt>
      <trkpt lat="44.28037" lon="6.21438">
        <ele>1821.1999511719</ele>
        <time>2021-09-13T11:43:08Z</time>
      </trkpt>
      <trkpt lat="44.28032" lon="6.21434">
        <ele>1819.8000488281</ele>
        <time>2021-09-13T11:43:30Z</time>
      </trkpt>
      <trkpt lat="44.28025" lon="6.2143">
        <ele>1816.8000488281</ele>
        <time>2021-09-13T11:43:49Z</time>
      </trkpt>
      <trkpt lat="44.28018" lon="6.2143">
        <ele>1815.4000244141</ele>
        <time>2021-09-13T11:44:07Z</time>
      </trkpt>
      <trkpt lat="44.28013" lon="6.21424">
        <ele>1812.4000244141</ele>
        <time>2021-09-13T11:44:26Z</time>
      </trkpt>
      <trkpt lat="44.28007" lon="6.21418">
        <ele>1810</ele>
        <time>2021-09-13T11:44:45Z</time>
      </trkpt>
      <trkpt lat="44.27999" lon="6.21415">
        <ele>1806.8000488281</ele>
        <time>2021-09-13T11:45:01Z</time>
      </trkpt>
      <trkpt lat="44.27994" lon="6.21405">
        <ele>1804</ele>
        <time>2021-09-13T11:45:21Z</time>
      </trkpt>
      <trkpt lat="44.27989" lon="6.21403">
        <ele>1800.8000488281</ele>
        <time>2021-09-13T11:45:32Z</time>
      </trkpt>
      <trkpt lat="44.27984" lon="6.21402">
        <ele>1798.1999511719</ele>
        <time>2021-09-13T11:45:52Z</time>
      </trkpt>
      <trkpt lat="44.27978" lon="6.21398">
        <ele>1795</ele>
        <time>2021-09-13T11:46:13Z</time>
      </trkpt>
      <trkpt lat="44.27976" lon="6.21391">
        <ele>1793</ele>
        <time>2021-09-13T11:46:33Z</time>
      </trkpt>
      <trkpt lat="44.27969" lon="6.21391">
        <ele>1791.8000488281</ele>
        <time>2021-09-13T11:47:03Z</time>
      </trkpt>
      <trkpt lat="44.27957" lon="6.21389">
        <ele>1788.5999755859</ele>
        <time>2021-09-13T11:47:22Z</time>
      </trkpt>
      <trkpt lat="44.27952" lon="6.21381">
        <ele>1785.4000244141</ele>
        <time>2021-09-13T11:47:36Z</time>
      </trkpt>
      <trkpt lat="44.27948" lon="6.21376">
        <ele>1782.4000244141</ele>
        <time>2021-09-13T11:47:48Z</time>
      </trkpt>
      <trkpt lat="44.27944" lon="6.21375">
        <ele>1780.5999755859</ele>
        <time>2021-09-13T11:47:56Z</time>
      </trkpt>
      <trkpt lat="44.27938" lon="6.2137">
        <ele>1777.5999755859</ele>
        <time>2021-09-13T11:48:13Z</time>
      </trkpt>
      <trkpt lat="44.27933" lon="6.21358">
        <ele>1774.5999755859</ele>
        <time>2021-09-13T11:48:32Z</time>
      </trkpt>
      <trkpt lat="44.27926" lon="6.21355">
        <ele>1771</ele>
        <time>2021-09-13T11:48:47Z</time>
      </trkpt>
      <trkpt lat="44.2792" lon="6.21349">
        <ele>1768</ele>
        <time>2021-09-13T11:49:07Z</time>
      </trkpt>
      <trkpt lat="44.27916" lon="6.21339">
        <ele>1765</ele>
        <time>2021-09-13T11:49:24Z</time>
      </trkpt>
      <trkpt lat="44.27913" lon="6.21331">
        <ele>1761.8000488281</ele>
        <time>2021-09-13T11:49:41Z</time>
      </trkpt>
      <trkpt lat="44.27907" lon="6.21326">
        <ele>1758.8000488281</ele>
        <time>2021-09-13T11:49:57Z</time>
      </trkpt>
      <trkpt lat="44.27903" lon="6.21323">
        <ele>1755.8000488281</ele>
        <time>2021-09-13T11:50:14Z</time>
      </trkpt>
      <trkpt lat="44.27897" lon="6.21323">
        <ele>1752.8000488281</ele>
        <time>2021-09-13T11:50:26Z</time>
      </trkpt>
      <trkpt lat="44.27892" lon="6.21319">
        <ele>1750.5999755859</ele>
        <time>2021-09-13T11:50:45Z</time>
      </trkpt>
      <trkpt lat="44.2789" lon="6.2131">
        <ele>1748.1999511719</ele>
        <time>2021-09-13T11:51:07Z</time>
      </trkpt>
      <trkpt lat="44.27884" lon="6.21312">
        <ele>1745.1999511719</ele>
        <time>2021-09-13T11:51:25Z</time>
      </trkpt>
      <trkpt lat="44.27874" lon="6.21311">
        <ele>1743.1999511719</ele>
        <time>2021-09-13T11:51:46Z</time>
      </trkpt>
      <trkpt lat="44.27871" lon="6.21308">
        <ele>1741</ele>
        <time>2021-09-13T11:52:12Z</time>
      </trkpt>
      <trkpt lat="44.27867" lon="6.21301">
        <ele>1738</ele>
        <time>2021-09-13T11:52:36Z</time>
      </trkpt>
      <trkpt lat="44.27863" lon="6.21296">
        <ele>1735.1999511719</ele>
        <time>2021-09-13T11:53:02Z</time>
      </trkpt>
      <trkpt lat="44.27859" lon="6.2129">
        <ele>1733.8000488281</ele>
        <time>2021-09-13T11:53:26Z</time>
      </trkpt>
      <trkpt lat="44.27858" lon="6.21291">
        <ele>1731.4000244141</ele>
        <time>2021-09-13T11:53:49Z</time>
      </trkpt>
      <trkpt lat="44.27855" lon="6.21284">
        <ele>1729.1999511719</ele>
        <time>2021-09-13T11:54:16Z</time>
      </trkpt>
      <trkpt lat="44.27855" lon="6.21273">
        <ele>1726.5999755859</ele>
        <time>2021-09-13T11:54:37Z</time>
      </trkpt>
      <trkpt lat="44.27854" lon="6.2126">
        <ele>1723.8000488281</ele>
        <time>2021-09-13T11:55:04Z</time>
      </trkpt>
      <trkpt lat="44.27853" lon="6.21254">
        <ele>1721.1999511719</ele>
        <time>2021-09-13T11:55:28Z</time>
      </trkpt>
      <trkpt lat="44.27853" lon="6.21248">
        <ele>1718.8000488281</ele>
        <time>2021-09-13T11:55:51Z</time>
      </trkpt>
      <trkpt lat="44.27849" lon="6.21241">
        <ele>1715.5999755859</ele>
        <time>2021-09-13T11:56:12Z</time>
      </trkpt>
      <trkpt lat="44.27847" lon="6.21237">
        <ele>1713</ele>
        <time>2021-09-13T11:56:35Z</time>
      </trkpt>
      <trkpt lat="44.27834" lon="6.21234">
        <ele>1710</ele>
        <time>2021-09-13T11:56:56Z</time>
      </trkpt>
      <trkpt lat="44.27827" lon="6.21225">
        <ele>1707</ele>
        <time>2021-09-13T11:57:13Z</time>
      </trkpt>
      <trkpt lat="44.27822" lon="6.21223">
        <ele>1703.8000488281</ele>
        <time>2021-09-13T11:57:29Z</time>
      </trkpt>
      <trkpt lat="44.2781" lon="6.21226">
        <ele>1700.8000488281</ele>
        <time>2021-09-13T11:57:52Z</time>
      </trkpt>
      <trkpt lat="44.27799" lon="6.21233">
        <ele>1697.5999755859</ele>
        <time>2021-09-13T11:58:11Z</time>
      </trkpt>
      <trkpt lat="44.27792" lon="6.21233">
        <ele>1694.4000244141</ele>
        <time>2021-09-13T11:58:25Z</time>
      </trkpt>
      <trkpt lat="44.27782" lon="6.21227">
        <ele>1691.1999511719</ele>
        <time>2021-09-13T11:58:43Z</time>
      </trkpt>
      <trkpt lat="44.27773" lon="6.21221">
        <ele>1688.1999511719</ele>
        <time>2021-09-13T11:59:01Z</time>
      </trkpt>
      <trkpt lat="44.27766" lon="6.21219">
        <ele>1686.4000244141</ele>
        <time>2021-09-13T11:59:19Z</time>
      </trkpt>
      <trkpt lat="44.27758" lon="6.21218">
        <ele>1683.5999755859</ele>
        <time>2021-09-13T11:59:38Z</time>
      </trkpt>
      <trkpt lat="44.27751" lon="6.21218">
        <ele>1683</ele>
        <time>2021-09-13T12:00:02Z</time>
      </trkpt>
      <trkpt lat="44.27736" lon="6.21211">
        <ele>1680</ele>
        <time>2021-09-13T12:00:21Z</time>
      </trkpt>
      <trkpt lat="44.27732" lon="6.21209">
        <ele>1677.5999755859</ele>
        <time>2021-09-13T12:00:41Z</time>
      </trkpt>
      <trkpt lat="44.27716" lon="6.21196">
        <ele>1674.5999755859</ele>
        <time>2021-09-13T12:01:06Z</time>
      </trkpt>
      <trkpt lat="44.27704" lon="6.21183">
        <ele>1671.4000244141</ele>
        <time>2021-09-13T12:01:26Z</time>
      </trkpt>
      <trkpt lat="44.27693" lon="6.21171">
        <ele>1668.4000244141</ele>
        <time>2021-09-13T12:01:42Z</time>
      </trkpt>
      <trkpt lat="44.27683" lon="6.21156">
        <ele>1665.4000244141</ele>
        <time>2021-09-13T12:01:56Z</time>
      </trkpt>
      <trkpt lat="44.27675" lon="6.21139">
        <ele>1662.1999511719</ele>
        <time>2021-09-13T12:02:09Z</time>
      </trkpt>
      <trkpt lat="44.27662" lon="6.21117">
        <ele>1660</ele>
        <time>2021-09-13T12:02:28Z</time>
      </trkpt>
      <trkpt lat="44.27661" lon="6.21115">
        <ele>1659.4000244141</ele>
        <time>2021-09-13T12:02:34Z</time>
      </trkpt>
      <trkpt lat="44.27658" lon="6.2111">
        <ele>1659.1999511719</ele>
        <time>2021-09-13T12:02:38Z</time>
      </trkpt>
      <trkpt lat="44.27648" lon="6.2108">
        <ele>1658</ele>
        <time>2021-09-13T12:03:01Z</time>
      </trkpt>
      <trkpt lat="44.27645" lon="6.21055">
        <ele>1657.1999511719</ele>
        <time>2021-09-13T12:03:19Z</time>
      </trkpt>
      <trkpt lat="44.27645" lon="6.21046">
        <ele>1656.1999511719</ele>
        <time>2021-09-13T12:03:35Z</time>
      </trkpt>
      <trkpt lat="44.27644" lon="6.21038">
        <ele>1656</ele>
        <time>2021-09-13T12:03:40Z</time>
      </trkpt>
      <trkpt lat="44.27644" lon="6.21033">
        <ele>1656</ele>
        <time>2021-09-13T12:03:44Z</time>
      </trkpt>
      <trkpt lat="44.27642" lon="6.21012">
        <ele>1654</ele>
        <time>2021-09-13T12:04:00Z</time>
      </trkpt>
      <trkpt lat="44.27634" lon="6.20979">
        <ele>1651</ele>
        <time>2021-09-13T12:04:28Z</time>
      </trkpt>
      <trkpt lat="44.27634" lon="6.20967">
        <ele>1648</ele>
        <time>2021-09-13T12:04:49Z</time>
      </trkpt>
      <trkpt lat="44.27634" lon="6.20957">
        <ele>1645.5999755859</ele>
        <time>2021-09-13T12:05:09Z</time>
      </trkpt>
      <trkpt lat="44.27633" lon="6.20945">
        <ele>1643.5999755859</ele>
        <time>2021-09-13T12:05:36Z</time>
      </trkpt>
      <trkpt lat="44.2763" lon="6.20929">
        <ele>1640.5999755859</ele>
        <time>2021-09-13T12:05:55Z</time>
      </trkpt>
      <trkpt lat="44.27626" lon="6.20913">
        <ele>1637.4000244141</ele>
        <time>2021-09-13T12:06:15Z</time>
      </trkpt>
      <trkpt lat="44.27625" lon="6.20899">
        <ele>1634.4000244141</ele>
        <time>2021-09-13T12:06:32Z</time>
      </trkpt>
      <trkpt lat="44.27623" lon="6.20884">
        <ele>1631.4000244141</ele>
        <time>2021-09-13T12:06:49Z</time>
      </trkpt>
      <trkpt lat="44.27621" lon="6.20871">
        <ele>1628.1999511719</ele>
        <time>2021-09-13T12:07:05Z</time>
      </trkpt>
      <trkpt lat="44.27616" lon="6.20856">
        <ele>1625.5999755859</ele>
        <time>2021-09-13T12:07:26Z</time>
      </trkpt>
      <trkpt lat="44.27611" lon="6.20844">
        <ele>1623</ele>
        <time>2021-09-13T12:07:48Z</time>
      </trkpt>
      <trkpt lat="44.27608" lon="6.20836">
        <ele>1619.8000488281</ele>
        <time>2021-09-13T12:08:01Z</time>
      </trkpt>
      <trkpt lat="44.27607" lon="6.20826">
        <ele>1616.8000488281</ele>
        <time>2021-09-13T12:08:21Z</time>
      </trkpt>
      <trkpt lat="44.27608" lon="6.20815">
        <ele>1613.5999755859</ele>
        <time>2021-09-13T12:08:47Z</time>
      </trkpt>
      <trkpt lat="44.27608" lon="6.20803">
        <ele>1610.5999755859</ele>
        <time>2021-09-13T12:09:05Z</time>
      </trkpt>
      <trkpt lat="44.27609" lon="6.20795">
        <ele>1609.5999755859</ele>
        <time>2021-09-13T12:09:32Z</time>
      </trkpt>
      <trkpt lat="44.27606" lon="6.20782">
        <ele>1606.5999755859</ele>
        <time>2021-09-13T12:09:46Z</time>
      </trkpt>
      <trkpt lat="44.27604" lon="6.2077">
        <ele>1603.4000244141</ele>
        <time>2021-09-13T12:10:01Z</time>
      </trkpt>
      <trkpt lat="44.27603" lon="6.20755">
        <ele>1600.8000488281</ele>
        <time>2021-09-13T12:10:19Z</time>
      </trkpt>
      <trkpt lat="44.27599" lon="6.20736">
        <ele>1597.8000488281</ele>
        <time>2021-09-13T12:10:37Z</time>
      </trkpt>
      <trkpt lat="44.27591" lon="6.20726">
        <ele>1596.1999511719</ele>
        <time>2021-09-13T12:10:54Z</time>
      </trkpt>
      <trkpt lat="44.27585" lon="6.20722">
        <ele>1595.1999511719</ele>
        <time>2021-09-13T12:11:07Z</time>
      </trkpt>
      <trkpt lat="44.27588" lon="6.20724">
        <ele>1595</ele>
        <time>2021-09-13T12:11:25Z</time>
      </trkpt>
      <trkpt lat="44.27586" lon="6.20724">
        <ele>1596</ele>
        <time>2021-09-13T12:12:03Z</time>
      </trkpt>
      <trkpt lat="44.27583" lon="6.20716">
        <ele>1595.4000244141</ele>
        <time>2021-09-13T12:12:40Z</time>
      </trkpt>
      <trkpt lat="44.27584" lon="6.20716">
        <ele>1595</ele>
        <time>2021-09-13T12:12:56Z</time>
      </trkpt>
      <trkpt lat="44.27582" lon="6.2071">
        <ele>1594.4000244141</ele>
        <time>2021-09-13T12:13:36Z</time>
      </trkpt>
      <trkpt lat="44.27578" lon="6.20684">
        <ele>1594.1999511719</ele>
        <time>2021-09-13T12:13:57Z</time>
      </trkpt>
      <trkpt lat="44.27578" lon="6.20675">
        <ele>1595.8000488281</ele>
        <time>2021-09-13T12:14:06Z</time>
      </trkpt>
      <trkpt lat="44.27578" lon="6.2066">
        <ele>1598</ele>
        <time>2021-09-13T12:14:23Z</time>
      </trkpt>
      <trkpt lat="44.2758" lon="6.20645">
        <ele>1600.5999755859</ele>
        <time>2021-09-13T12:14:41Z</time>
      </trkpt>
      <trkpt lat="44.27586" lon="6.20637">
        <ele>1601.1999511719</ele>
        <time>2021-09-13T12:14:50Z</time>
      </trkpt>
      <trkpt lat="44.27599" lon="6.20626">
        <ele>1600.1999511719</ele>
        <time>2021-09-13T12:15:08Z</time>
      </trkpt>
      <trkpt lat="44.27613" lon="6.20615">
        <ele>1598.4000244141</ele>
        <time>2021-09-13T12:15:27Z</time>
      </trkpt>
      <trkpt lat="44.27628" lon="6.20611">
        <ele>1595.1999511719</ele>
        <time>2021-09-13T12:15:46Z</time>
      </trkpt>
      <trkpt lat="44.27635" lon="6.20605">
        <ele>1593</ele>
        <time>2021-09-13T12:16:05Z</time>
      </trkpt>
      <trkpt lat="44.27632" lon="6.20593">
        <ele>1590.5999755859</ele>
        <time>2021-09-13T12:16:19Z</time>
      </trkpt>
      <trkpt lat="44.27631" lon="6.20591">
        <ele>1590.1999511719</ele>
        <time>2021-09-13T12:16:21Z</time>
      </trkpt>
      <trkpt lat="44.27624" lon="6.20578">
        <ele>1591</ele>
        <time>2021-09-13T12:16:39Z</time>
      </trkpt>
      <trkpt lat="44.27623" lon="6.20564">
        <ele>1594.1999511719</ele>
        <time>2021-09-13T12:16:54Z</time>
      </trkpt>
      <trkpt lat="44.27621" lon="6.20541">
        <ele>1594.4000244141</ele>
        <time>2021-09-13T12:17:14Z</time>
      </trkpt>
      <trkpt lat="44.27621" lon="6.20515">
        <ele>1593.5999755859</ele>
        <time>2021-09-13T12:17:34Z</time>
      </trkpt>
      <trkpt lat="44.27622" lon="6.20499">
        <ele>1593.5999755859</ele>
        <time>2021-09-13T12:17:49Z</time>
      </trkpt>
      <trkpt lat="44.27619" lon="6.20479">
        <ele>1590.5999755859</ele>
        <time>2021-09-13T12:18:16Z</time>
      </trkpt>
      <trkpt lat="44.27627" lon="6.20472">
        <ele>1590.4000244141</ele>
        <time>2021-09-13T12:18:39Z</time>
      </trkpt>
      <trkpt lat="44.27632" lon="6.20467">
        <ele>1589.1999511719</ele>
        <time>2021-09-13T12:19:01Z</time>
      </trkpt>
      <trkpt lat="44.27631" lon="6.20458">
        <ele>1588.5999755859</ele>
        <time>2021-09-13T12:19:12Z</time>
      </trkpt>
      <trkpt lat="44.27632" lon="6.20448">
        <ele>1587</ele>
        <time>2021-09-13T12:19:20Z</time>
      </trkpt>
      <trkpt lat="44.27637" lon="6.20436">
        <ele>1585.8000488281</ele>
        <time>2021-09-13T12:19:31Z</time>
      </trkpt>
      <trkpt lat="44.27649" lon="6.2042">
        <ele>1585.1999511719</ele>
        <time>2021-09-13T12:19:51Z</time>
      </trkpt>
      <trkpt lat="44.27654" lon="6.20406">
        <ele>1584.4000244141</ele>
        <time>2021-09-13T12:20:09Z</time>
      </trkpt>
      <trkpt lat="44.27656" lon="6.20395">
        <ele>1584.4000244141</ele>
        <time>2021-09-13T12:20:18Z</time>
      </trkpt>
      <trkpt lat="44.27663" lon="6.20384">
        <ele>1583.5999755859</ele>
        <time>2021-09-13T12:20:36Z</time>
      </trkpt>
      <trkpt lat="44.27666" lon="6.20381">
        <ele>1583.4000244141</ele>
        <time>2021-09-13T12:20:40Z</time>
      </trkpt>
      <trkpt lat="44.27668" lon="6.20378">
        <ele>1583.4000244141</ele>
        <time>2021-09-13T12:20:43Z</time>
      </trkpt>
      <trkpt lat="44.27684" lon="6.20357">
        <ele>1582.1999511719</ele>
        <time>2021-09-13T12:21:03Z</time>
      </trkpt>
      <trkpt lat="44.27699" lon="6.20332">
        <ele>1581.5999755859</ele>
        <time>2021-09-13T12:21:23Z</time>
      </trkpt>
      <trkpt lat="44.27708" lon="6.20321">
        <ele>1581</ele>
        <time>2021-09-13T12:21:42Z</time>
      </trkpt>
      <trkpt lat="44.2772" lon="6.20288">
        <ele>1579.8000488281</ele>
        <time>2021-09-13T12:22:07Z</time>
      </trkpt>
      <trkpt lat="44.27721" lon="6.20285">
        <ele>1579.4000244141</ele>
        <time>2021-09-13T12:22:13Z</time>
      </trkpt>
      <trkpt lat="44.27723" lon="6.2028">
        <ele>1578.8000488281</ele>
        <time>2021-09-13T12:22:17Z</time>
      </trkpt>
      <trkpt lat="44.2773" lon="6.20242">
        <ele>1576.4000244141</ele>
        <time>2021-09-13T12:22:42Z</time>
      </trkpt>
      <trkpt lat="44.27732" lon="6.2023">
        <ele>1576.1999511719</ele>
        <time>2021-09-13T12:22:50Z</time>
      </trkpt>
      <trkpt lat="44.27737" lon="6.20202">
        <ele>1575.5999755859</ele>
        <time>2021-09-13T12:23:10Z</time>
      </trkpt>
      <trkpt lat="44.27737" lon="6.202">
        <ele>1575.5999755859</ele>
        <time>2021-09-13T12:23:11Z</time>
      </trkpt>
      <trkpt lat="44.27738" lon="6.20181">
        <ele>1574.1999511719</ele>
        <time>2021-09-13T12:23:23Z</time>
      </trkpt>
      <trkpt lat="44.27742" lon="6.20173">
        <ele>1574</ele>
        <time>2021-09-13T12:23:30Z</time>
      </trkpt>
      <trkpt lat="44.27754" lon="6.20153">
        <ele>1573.4000244141</ele>
        <time>2021-09-13T12:23:47Z</time>
      </trkpt>
      <trkpt lat="44.27755" lon="6.2015">
        <ele>1573.4000244141</ele>
        <time>2021-09-13T12:23:49Z</time>
      </trkpt>
      <trkpt lat="44.27757" lon="6.20145">
        <ele>1573.1999511719</ele>
        <time>2021-09-13T12:23:53Z</time>
      </trkpt>
      <trkpt lat="44.27767" lon="6.20114">
        <ele>1573.1999511719</ele>
        <time>2021-09-13T12:24:14Z</time>
      </trkpt>
      <trkpt lat="44.27771" lon="6.2009">
        <ele>1573.1999511719</ele>
        <time>2021-09-13T12:24:31Z</time>
      </trkpt>
      <trkpt lat="44.2777" lon="6.20065">
        <ele>1572.5999755859</ele>
        <time>2021-09-13T12:24:48Z</time>
      </trkpt>
      <trkpt lat="44.27767" lon="6.20058">
        <ele>1572</ele>
        <time>2021-09-13T12:24:54Z</time>
      </trkpt>
      <trkpt lat="44.27751" lon="6.20042">
        <ele>1570.1999511719</ele>
        <time>2021-09-13T12:25:11Z</time>
      </trkpt>
      <trkpt lat="44.27744" lon="6.20002">
        <ele>1569.5999755859</ele>
        <time>2021-09-13T12:25:36Z</time>
      </trkpt>
      <trkpt lat="44.27745" lon="6.19962">
        <ele>1569.4000244141</ele>
        <time>2021-09-13T12:26:04Z</time>
      </trkpt>
      <trkpt lat="44.27745" lon="6.19961">
        <ele>1569.4000244141</ele>
        <time>2021-09-13T12:26:05Z</time>
      </trkpt>
      <trkpt lat="44.27746" lon="6.19939">
        <ele>1568.8000488281</ele>
        <time>2021-09-13T12:26:28Z</time>
      </trkpt>
      <trkpt lat="44.27764" lon="6.19948">
        <ele>1569.1999511719</ele>
        <time>2021-09-13T12:26:49Z</time>
      </trkpt>
      <trkpt lat="44.27787" lon="6.19943">
        <ele>1570.8000488281</ele>
        <time>2021-09-13T12:27:17Z</time>
      </trkpt>
      <trkpt lat="44.27802" lon="6.19935">
        <ele>1573.5999755859</ele>
        <time>2021-09-13T12:27:41Z</time>
      </trkpt>
      <trkpt lat="44.27813" lon="6.19912">
        <ele>1575.4000244141</ele>
        <time>2021-09-13T12:28:05Z</time>
      </trkpt>
      <trkpt lat="44.27828" lon="6.1989">
        <ele>1576.1999511719</ele>
        <time>2021-09-13T12:28:28Z</time>
      </trkpt>
      <trkpt lat="44.27839" lon="6.19864">
        <ele>1576.4000244141</ele>
        <time>2021-09-13T12:28:49Z</time>
      </trkpt>
      <trkpt lat="44.27853" lon="6.19835">
        <ele>1579</ele>
        <time>2021-09-13T12:29:16Z</time>
      </trkpt>
      <trkpt lat="44.2787" lon="6.19805">
        <ele>1580.1999511719</ele>
        <time>2021-09-13T12:29:46Z</time>
      </trkpt>
      <trkpt lat="44.27881" lon="6.19785">
        <ele>1580.4000244141</ele>
        <time>2021-09-13T12:30:03Z</time>
      </trkpt>
      <trkpt lat="44.27882" lon="6.19763">
        <ele>1579.5999755859</ele>
        <time>2021-09-13T12:30:19Z</time>
      </trkpt>
      <trkpt lat="44.27871" lon="6.19744">
        <ele>1579</ele>
        <time>2021-09-13T12:30:38Z</time>
      </trkpt>
      <trkpt lat="44.27863" lon="6.19731">
        <ele>1579</ele>
        <time>2021-09-13T12:30:51Z</time>
      </trkpt>
      <trkpt lat="44.27848" lon="6.19702">
        <ele>1576.8000488281</ele>
        <time>2021-09-13T12:31:11Z</time>
      </trkpt>
      <trkpt lat="44.27839" lon="6.19685">
        <ele>1575.4000244141</ele>
        <time>2021-09-13T12:31:28Z</time>
      </trkpt>
      <trkpt lat="44.27832" lon="6.19654">
        <ele>1576.4000244141</ele>
        <time>2021-09-13T12:31:53Z</time>
      </trkpt>
      <trkpt lat="44.27832" lon="6.19626">
        <ele>1577</ele>
        <time>2021-09-13T12:32:15Z</time>
      </trkpt>
      <trkpt lat="44.27835" lon="6.19594">
        <ele>1578</ele>
        <time>2021-09-13T12:32:37Z</time>
      </trkpt>
      <trkpt lat="44.27848" lon="6.19574">
        <ele>1579.4000244141</ele>
        <time>2021-09-13T12:33:00Z</time>
      </trkpt>
      <trkpt lat="44.27855" lon="6.19557">
        <ele>1581.1999511719</ele>
        <time>2021-09-13T12:33:22Z</time>
      </trkpt>
      <trkpt lat="44.27857" lon="6.1953">
        <ele>1581.8000488281</ele>
        <time>2021-09-13T12:33:43Z</time>
      </trkpt>
      <trkpt lat="44.2787" lon="6.19499">
        <ele>1583.1999511719</ele>
        <time>2021-09-13T12:34:08Z</time>
      </trkpt>
      <trkpt lat="44.27884" lon="6.19458">
        <ele>1584.5999755859</ele>
        <time>2021-09-13T12:34:37Z</time>
      </trkpt>
      <trkpt lat="44.27889" lon="6.19428">
        <ele>1585.1999511719</ele>
        <time>2021-09-13T12:34:59Z</time>
      </trkpt>
      <trkpt lat="44.27891" lon="6.19422">
        <ele>1585.1999511719</ele>
        <time>2021-09-13T12:35:17Z</time>
      </trkpt>
      <trkpt lat="44.27897" lon="6.19385">
        <ele>1584</ele>
        <time>2021-09-13T12:35:41Z</time>
      </trkpt>
      <trkpt lat="44.27902" lon="6.19364">
        <ele>1583</ele>
        <time>2021-09-13T12:36:06Z</time>
      </trkpt>
      <trkpt lat="44.27914" lon="6.19344">
        <ele>1582.8000488281</ele>
        <time>2021-09-13T12:36:31Z</time>
      </trkpt>
      <trkpt lat="44.2793" lon="6.19317">
        <ele>1583.1999511719</ele>
        <time>2021-09-13T12:36:55Z</time>
      </trkpt>
      <trkpt lat="44.27934" lon="6.19313">
        <ele>1583.1999511719</ele>
        <time>2021-09-13T12:36:59Z</time>
      </trkpt>
      <trkpt lat="44.27952" lon="6.19294">
        <ele>1583.4000244141</ele>
        <time>2021-09-13T12:37:20Z</time>
      </trkpt>
      <trkpt lat="44.27962" lon="6.19284">
        <ele>1584</ele>
        <time>2021-09-13T12:37:43Z</time>
      </trkpt>
      <trkpt lat="44.27964" lon="6.19288">
        <ele>1584.1999511719</ele>
        <time>2021-09-13T12:38:21Z</time>
      </trkpt>
      <trkpt lat="44.27985" lon="6.19279">
        <ele>1584.1999511719</ele>
        <time>2021-09-13T12:38:45Z</time>
      </trkpt>
      <trkpt lat="44.28002" lon="6.1926">
        <ele>1583.5999755859</ele>
        <time>2021-09-13T12:39:08Z</time>
      </trkpt>
      <trkpt lat="44.28008" lon="6.19254">
        <ele>1583.1999511719</ele>
        <time>2021-09-13T12:39:16Z</time>
      </trkpt>
      <trkpt lat="44.28018" lon="6.19238">
        <ele>1581.8000488281</ele>
        <time>2021-09-13T12:39:50Z</time>
      </trkpt>
      <trkpt lat="44.28029" lon="6.19218">
        <ele>1578.5999755859</ele>
        <time>2021-09-13T12:40:12Z</time>
      </trkpt>
      <trkpt lat="44.28027" lon="6.19176">
        <ele>1576.4000244141</ele>
        <time>2021-09-13T12:40:39Z</time>
      </trkpt>
      <trkpt lat="44.28027" lon="6.19155">
        <ele>1576.4000244141</ele>
        <time>2021-09-13T12:41:02Z</time>
      </trkpt>
      <trkpt lat="44.2803" lon="6.19136">
        <ele>1576.4000244141</ele>
        <time>2021-09-13T12:41:24Z</time>
      </trkpt>
      <trkpt lat="44.28042" lon="6.19105">
        <ele>1576</ele>
        <time>2021-09-13T12:41:52Z</time>
      </trkpt>
      <trkpt lat="44.28049" lon="6.19075">
        <ele>1576.1999511719</ele>
        <time>2021-09-13T12:42:17Z</time>
      </trkpt>
      <trkpt lat="44.28056" lon="6.19059">
        <ele>1577</ele>
        <time>2021-09-13T12:42:39Z</time>
      </trkpt>
      <trkpt lat="44.2807" lon="6.19022">
        <ele>1577.1999511719</ele>
        <time>2021-09-13T12:43:06Z</time>
      </trkpt>
      <trkpt lat="44.28071" lon="6.18986">
        <ele>1577.1999511719</ele>
        <time>2021-09-13T12:43:29Z</time>
      </trkpt>
      <trkpt lat="44.28071" lon="6.18985">
        <ele>1577.1999511719</ele>
        <time>2021-09-13T12:43:30Z</time>
      </trkpt>
      <trkpt lat="44.28073" lon="6.18954">
        <ele>1576.1999511719</ele>
        <time>2021-09-13T12:43:52Z</time>
      </trkpt>
      <trkpt lat="44.28073" lon="6.18917">
        <ele>1573</ele>
        <time>2021-09-13T12:44:14Z</time>
      </trkpt>
      <trkpt lat="44.28073" lon="6.18912">
        <ele>1572.4000244141</ele>
        <time>2021-09-13T12:44:17Z</time>
      </trkpt>
      <trkpt lat="44.28071" lon="6.18896">
        <ele>1571</ele>
        <time>2021-09-13T12:44:27Z</time>
      </trkpt>
      <trkpt lat="44.28071" lon="6.18863">
        <ele>1570.4000244141</ele>
        <time>2021-09-13T12:44:46Z</time>
      </trkpt>
      <trkpt lat="44.28069" lon="6.18838">
        <ele>1571.8000488281</ele>
        <time>2021-09-13T12:45:04Z</time>
      </trkpt>
      <trkpt lat="44.28065" lon="6.18819">
        <ele>1572.1999511719</ele>
        <time>2021-09-13T12:45:21Z</time>
      </trkpt>
      <trkpt lat="44.28069" lon="6.18818">
        <ele>1572.5999755859</ele>
        <time>2021-09-13T12:45:42Z</time>
      </trkpt>
      <trkpt lat="44.28075" lon="6.18808">
        <ele>1572.1999511719</ele>
        <time>2021-09-13T12:45:53Z</time>
      </trkpt>
      <trkpt lat="44.28083" lon="6.18792">
        <ele>1571.4000244141</ele>
        <time>2021-09-13T12:46:10Z</time>
      </trkpt>
      <trkpt lat="44.28096" lon="6.18776">
        <ele>1569.5999755859</ele>
        <time>2021-09-13T12:46:29Z</time>
      </trkpt>
      <trkpt lat="44.28116" lon="6.18746">
        <ele>1566.8000488281</ele>
        <time>2021-09-13T12:46:53Z</time>
      </trkpt>
      <trkpt lat="44.28132" lon="6.18737">
        <ele>1564.8000488281</ele>
        <time>2021-09-13T12:47:10Z</time>
      </trkpt>
      <trkpt lat="44.28143" lon="6.1876">
        <ele>1563</ele>
        <time>2021-09-13T12:47:31Z</time>
      </trkpt>
      <trkpt lat="44.28147" lon="6.1876">
        <ele>1562.5999755859</ele>
        <time>2021-09-13T12:47:34Z</time>
      </trkpt>
      <trkpt lat="44.28155" lon="6.18734">
        <ele>1561.1999511719</ele>
        <time>2021-09-13T12:47:52Z</time>
      </trkpt>
      <trkpt lat="44.28163" lon="6.18706">
        <ele>1559.4000244141</ele>
        <time>2021-09-13T12:48:12Z</time>
      </trkpt>
      <trkpt lat="44.28164" lon="6.1868">
        <ele>1557.5999755859</ele>
        <time>2021-09-13T12:48:30Z</time>
      </trkpt>
      <trkpt lat="44.28149" lon="6.18677">
        <ele>1555.4000244141</ele>
        <time>2021-09-13T12:48:49Z</time>
      </trkpt>
      <trkpt lat="44.28134" lon="6.18678">
        <ele>1553.5999755859</ele>
        <time>2021-09-13T12:49:03Z</time>
      </trkpt>
      <trkpt lat="44.28101" lon="6.1867">
        <ele>1551</ele>
        <time>2021-09-13T12:49:30Z</time>
      </trkpt>
      <trkpt lat="44.28078" lon="6.18663">
        <ele>1549.4000244141</ele>
        <time>2021-09-13T12:49:51Z</time>
      </trkpt>
      <trkpt lat="44.28059" lon="6.18657">
        <ele>1548.4000244141</ele>
        <time>2021-09-13T12:50:05Z</time>
      </trkpt>
      <trkpt lat="44.28045" lon="6.18654">
        <ele>1548.4000244141</ele>
        <time>2021-09-13T12:50:21Z</time>
      </trkpt>
      <trkpt lat="44.28022" lon="6.18657">
        <ele>1548.1999511719</ele>
        <time>2021-09-13T12:50:41Z</time>
      </trkpt>
      <trkpt lat="44.28018" lon="6.18659">
        <ele>1548</ele>
        <time>2021-09-13T12:50:43Z</time>
      </trkpt>
      <trkpt lat="44.27992" lon="6.18662">
        <ele>1547.4000244141</ele>
        <time>2021-09-13T12:51:05Z</time>
      </trkpt>
      <trkpt lat="44.27987" lon="6.18662">
        <ele>1547</ele>
        <time>2021-09-13T12:51:12Z</time>
      </trkpt>
      <trkpt lat="44.27984" lon="6.1866">
        <ele>1547</ele>
        <time>2021-09-13T12:51:15Z</time>
      </trkpt>
      <trkpt lat="44.27968" lon="6.18643">
        <ele>1545.8000488281</ele>
        <time>2021-09-13T12:51:35Z</time>
      </trkpt>
      <trkpt lat="44.27984" lon="6.18614">
        <ele>1546.4000244141</ele>
        <time>2021-09-13T12:51:59Z</time>
      </trkpt>
      <trkpt lat="44.28002" lon="6.1859">
        <ele>1547.1999511719</ele>
        <time>2021-09-13T12:52:21Z</time>
      </trkpt>
      <trkpt lat="44.28012" lon="6.18572">
        <ele>1547.5999755859</ele>
        <time>2021-09-13T12:52:37Z</time>
      </trkpt>
      <trkpt lat="44.28021" lon="6.18553">
        <ele>1548</ele>
        <time>2021-09-13T12:52:52Z</time>
      </trkpt>
      <trkpt lat="44.28036" lon="6.1853">
        <ele>1548</ele>
        <time>2021-09-13T12:53:10Z</time>
      </trkpt>
      <trkpt lat="44.28037" lon="6.18528">
        <ele>1548</ele>
        <time>2021-09-13T12:53:11Z</time>
      </trkpt>
      <trkpt lat="44.28045" lon="6.18514">
        <ele>1547.5999755859</ele>
        <time>2021-09-13T12:53:21Z</time>
      </trkpt>
      <trkpt lat="44.28053" lon="6.18498">
        <ele>1547.5999755859</ele>
        <time>2021-09-13T12:53:34Z</time>
      </trkpt>
      <trkpt lat="44.28065" lon="6.1848">
        <ele>1547.4000244141</ele>
        <time>2021-09-13T12:53:52Z</time>
      </trkpt>
      <trkpt lat="44.28071" lon="6.18453">
        <ele>1547</ele>
        <time>2021-09-13T12:54:08Z</time>
      </trkpt>
      <trkpt lat="44.28076" lon="6.18439">
        <ele>1546.4000244141</ele>
        <time>2021-09-13T12:54:18Z</time>
      </trkpt>
      <trkpt lat="44.28077" lon="6.18434">
        <ele>1546.1999511719</ele>
        <time>2021-09-13T12:54:21Z</time>
      </trkpt>
      <trkpt lat="44.28077" lon="6.18409">
        <ele>1545</ele>
        <time>2021-09-13T12:54:38Z</time>
      </trkpt>
      <trkpt lat="44.28083" lon="6.18377">
        <ele>1543.5999755859</ele>
        <time>2021-09-13T12:54:56Z</time>
      </trkpt>
      <trkpt lat="44.28084" lon="6.18375">
        <ele>1543.4000244141</ele>
        <time>2021-09-13T12:54:58Z</time>
      </trkpt>
      <trkpt lat="44.28095" lon="6.18355">
        <ele>1542</ele>
        <time>2021-09-13T12:55:14Z</time>
      </trkpt>
      <trkpt lat="44.28097" lon="6.18353">
        <ele>1542</ele>
        <time>2021-09-13T12:55:17Z</time>
      </trkpt>
      <trkpt lat="44.28105" lon="6.18345">
        <ele>1541.5999755859</ele>
        <time>2021-09-13T12:55:26Z</time>
      </trkpt>
      <trkpt lat="44.28124" lon="6.18325">
        <ele>1539.8000488281</ele>
        <time>2021-09-13T12:55:47Z</time>
      </trkpt>
      <trkpt lat="44.28143" lon="6.18312">
        <ele>1538.5999755859</ele>
        <time>2021-09-13T12:56:04Z</time>
      </trkpt>
      <trkpt lat="44.28144" lon="6.18311">
        <ele>1538.5999755859</ele>
        <time>2021-09-13T12:56:05Z</time>
      </trkpt>
      <trkpt lat="44.28152" lon="6.18309">
        <ele>1537.8000488281</ele>
        <time>2021-09-13T12:56:12Z</time>
      </trkpt>
      <trkpt lat="44.28175" lon="6.18314">
        <ele>1536</ele>
        <time>2021-09-13T12:56:30Z</time>
      </trkpt>
      <trkpt lat="44.28181" lon="6.18315">
        <ele>1535.1999511719</ele>
        <time>2021-09-13T12:56:38Z</time>
      </trkpt>
      <trkpt lat="44.28193" lon="6.18304">
        <ele>1534</ele>
        <time>2021-09-13T12:57:00Z</time>
      </trkpt>
      <trkpt lat="44.28214" lon="6.18292">
        <ele>1532.8000488281</ele>
        <time>2021-09-13T12:57:21Z</time>
      </trkpt>
      <trkpt lat="44.28233" lon="6.18279">
        <ele>1531.1999511719</ele>
        <time>2021-09-13T12:57:40Z</time>
      </trkpt>
      <trkpt lat="44.2824" lon="6.18253">
        <ele>1530.4000244141</ele>
        <time>2021-09-13T12:57:58Z</time>
      </trkpt>
      <trkpt lat="44.28242" lon="6.18233">
        <ele>1530.1999511719</ele>
        <time>2021-09-13T12:58:11Z</time>
      </trkpt>
      <trkpt lat="44.28251" lon="6.18209">
        <ele>1530</ele>
        <time>2021-09-13T12:58:28Z</time>
      </trkpt>
      <trkpt lat="44.28267" lon="6.18211">
        <ele>1529.8000488281</ele>
        <time>2021-09-13T12:58:44Z</time>
      </trkpt>
      <trkpt lat="44.28286" lon="6.18213">
        <ele>1530.5999755859</ele>
        <time>2021-09-13T12:59:02Z</time>
      </trkpt>
      <trkpt lat="44.2829" lon="6.18214">
        <ele>1530.8000488281</ele>
        <time>2021-09-13T12:59:07Z</time>
      </trkpt>
      <trkpt lat="44.28319" lon="6.18211">
        <ele>1531.8000488281</ele>
        <time>2021-09-13T12:59:31Z</time>
      </trkpt>
      <trkpt lat="44.28345" lon="6.18213">
        <ele>1532.8000488281</ele>
        <time>2021-09-13T12:59:58Z</time>
      </trkpt>
      <trkpt lat="44.28367" lon="6.18218">
        <ele>1533</ele>
        <time>2021-09-13T13:00:23Z</time>
      </trkpt>
      <trkpt lat="44.28394" lon="6.18219">
        <ele>1534.1999511719</ele>
        <time>2021-09-13T13:00:47Z</time>
      </trkpt>
      <trkpt lat="44.28412" lon="6.18216">
        <ele>1534.5999755859</ele>
        <time>2021-09-13T13:01:03Z</time>
      </trkpt>
      <trkpt lat="44.28431" lon="6.18216">
        <ele>1534.8000488281</ele>
        <time>2021-09-13T13:01:19Z</time>
      </trkpt>
      <trkpt lat="44.28445" lon="6.18214">
        <ele>1534.8000488281</ele>
        <time>2021-09-13T13:01:32Z</time>
      </trkpt>
      <trkpt lat="44.28459" lon="6.18212">
        <ele>1534.5999755859</ele>
        <time>2021-09-13T13:01:46Z</time>
      </trkpt>
      <trkpt lat="44.28476" lon="6.1821">
        <ele>1533.8000488281</ele>
        <time>2021-09-13T13:02:02Z</time>
      </trkpt>
      <trkpt lat="44.28485" lon="6.18209">
        <ele>1533.5999755859</ele>
        <time>2021-09-13T13:02:09Z</time>
      </trkpt>
      <trkpt lat="44.28504" lon="6.18207">
        <ele>1533</ele>
        <time>2021-09-13T13:02:26Z</time>
      </trkpt>
      <trkpt lat="44.28525" lon="6.18205">
        <ele>1531.5999755859</ele>
        <time>2021-09-13T13:02:47Z</time>
      </trkpt>
      <trkpt lat="44.28548" lon="6.18203">
        <ele>1530.8000488281</ele>
        <time>2021-09-13T13:03:11Z</time>
      </trkpt>
      <trkpt lat="44.2855" lon="6.18194">
        <ele>1530.1999511719</ele>
        <time>2021-09-13T13:03:31Z</time>
      </trkpt>
      <trkpt lat="44.28549" lon="6.18192">
        <ele>1532</ele>
        <time>2021-09-13T13:03:51Z</time>
      </trkpt>
      <trkpt lat="44.28553" lon="6.18186">
        <ele>1532.8000488281</ele>
        <time>2021-09-13T13:04:11Z</time>
      </trkpt>
      <trkpt lat="44.28551" lon="6.18182">
        <ele>1533.5999755859</ele>
        <time>2021-09-13T13:04:30Z</time>
      </trkpt>
      <trkpt lat="44.28551" lon="6.18182">
        <ele>1533.5999755859</ele>
        <time>2021-09-13T13:04:31Z</time>
      </trkpt>
      <trkpt lat="44.28559" lon="6.18183">
        <ele>1533.4000244141</ele>
        <time>2021-09-13T13:05:03Z</time>
      </trkpt>
      <trkpt lat="44.28553" lon="6.18194">
        <ele>1533.4000244141</ele>
        <time>2021-09-13T13:05:33Z</time>
      </trkpt>
      <trkpt lat="44.28559" lon="6.18184">
        <ele>1533</ele>
        <time>2021-09-13T13:06:09Z</time>
      </trkpt>
      <trkpt lat="44.28558" lon="6.18192">
        <ele>1533.1999511719</ele>
        <time>2021-09-13T13:06:51Z</time>
      </trkpt>
      <trkpt lat="44.28558" lon="6.18184">
        <ele>1533.1999511719</ele>
        <time>2021-09-13T13:07:30Z</time>
      </trkpt>
      <trkpt lat="44.28557" lon="6.18187">
        <ele>1533.1999511719</ele>
        <time>2021-09-13T13:08:11Z</time>
      </trkpt>
      <trkpt lat="44.28558" lon="6.1819">
        <ele>1533.4000244141</ele>
        <time>2021-09-13T13:08:16Z</time>
      </trkpt>
      <trkpt lat="44.28553" lon="6.18201">
        <ele>1533</ele>
        <time>2021-09-13T13:08:38Z</time>
      </trkpt>
      <trkpt lat="44.28563" lon="6.18205">
        <ele>1530.1999511719</ele>
        <time>2021-09-13T13:08:59Z</time>
      </trkpt>
      <trkpt lat="44.2857" lon="6.18197">
        <ele>1529.8000488281</ele>
        <time>2021-09-13T13:09:08Z</time>
      </trkpt>
      <trkpt lat="44.28578" lon="6.18185">
        <ele>1529.1999511719</ele>
        <time>2021-09-13T13:09:16Z</time>
      </trkpt>
      <trkpt lat="44.28592" lon="6.18169">
        <ele>1528.1999511719</ele>
        <time>2021-09-13T13:09:31Z</time>
      </trkpt>
      <trkpt lat="44.2861" lon="6.18164">
        <ele>1526</ele>
        <time>2021-09-13T13:09:49Z</time>
      </trkpt>
      <trkpt lat="44.28621" lon="6.18157">
        <ele>1525.8000488281</ele>
        <time>2021-09-13T13:10:05Z</time>
      </trkpt>
      <trkpt lat="44.28626" lon="6.18155">
        <ele>1526</ele>
        <time>2021-09-13T13:10:16Z</time>
      </trkpt>
      <trkpt lat="44.28635" lon="6.18167">
        <ele>1525.8000488281</ele>
        <time>2021-09-13T13:10:33Z</time>
      </trkpt>
      <trkpt lat="44.28645" lon="6.18181">
        <ele>1522.8000488281</ele>
        <time>2021-09-13T13:10:49Z</time>
      </trkpt>
      <trkpt lat="44.28659" lon="6.18191">
        <ele>1519.8000488281</ele>
        <time>2021-09-13T13:11:09Z</time>
      </trkpt>
      <trkpt lat="44.2868" lon="6.18182">
        <ele>1517.4000244141</ele>
        <time>2021-09-13T13:11:35Z</time>
      </trkpt>
      <trkpt lat="44.28687" lon="6.18182">
        <ele>1515</ele>
        <time>2021-09-13T13:12:00Z</time>
      </trkpt>
      <trkpt lat="44.28688" lon="6.18196">
        <ele>1513.4000244141</ele>
        <time>2021-09-13T13:12:25Z</time>
      </trkpt>
      <trkpt lat="44.28687" lon="6.18214">
        <ele>1510.4000244141</ele>
        <time>2021-09-13T13:12:39Z</time>
      </trkpt>
      <trkpt lat="44.28698" lon="6.18215">
        <ele>1508.4000244141</ele>
        <time>2021-09-13T13:12:57Z</time>
      </trkpt>
      <trkpt lat="44.28715" lon="6.18208">
        <ele>1505.1999511719</ele>
        <time>2021-09-13T13:13:16Z</time>
      </trkpt>
      <trkpt lat="44.28734" lon="6.1821">
        <ele>1502.4000244141</ele>
        <time>2021-09-13T13:13:39Z</time>
      </trkpt>
      <trkpt lat="44.2875" lon="6.18204">
        <ele>1499.1999511719</ele>
        <time>2021-09-13T13:14:01Z</time>
      </trkpt>
      <trkpt lat="44.28769" lon="6.18201">
        <ele>1496.1999511719</ele>
        <time>2021-09-13T13:14:25Z</time>
      </trkpt>
      <trkpt lat="44.28777" lon="6.18201">
        <ele>1495.4000244141</ele>
        <time>2021-09-13T13:14:35Z</time>
      </trkpt>
      <trkpt lat="44.28792" lon="6.18205">
        <ele>1493</ele>
        <time>2021-09-13T13:15:01Z</time>
      </trkpt>
      <trkpt lat="44.28807" lon="6.18212">
        <ele>1490</ele>
        <time>2021-09-13T13:15:17Z</time>
      </trkpt>
      <trkpt lat="44.28826" lon="6.18225">
        <ele>1488.8000488281</ele>
        <time>2021-09-13T13:15:42Z</time>
      </trkpt>
      <trkpt lat="44.28835" lon="6.18249">
        <ele>1485.8000488281</ele>
        <time>2021-09-13T13:16:04Z</time>
      </trkpt>
      <trkpt lat="44.28852" lon="6.18262">
        <ele>1484.1999511719</ele>
        <time>2021-09-13T13:16:33Z</time>
      </trkpt>
      <trkpt lat="44.28861" lon="6.18274">
        <ele>1481</ele>
        <time>2021-09-13T13:16:52Z</time>
      </trkpt>
      <trkpt lat="44.28869" lon="6.18295">
        <ele>1478.5999755859</ele>
        <time>2021-09-13T13:17:15Z</time>
      </trkpt>
      <trkpt lat="44.28869" lon="6.18318">
        <ele>1475.5999755859</ele>
        <time>2021-09-13T13:17:37Z</time>
      </trkpt>
      <trkpt lat="44.28877" lon="6.18341">
        <ele>1473.4000244141</ele>
        <time>2021-09-13T13:18:00Z</time>
      </trkpt>
      <trkpt lat="44.28889" lon="6.18368">
        <ele>1470.4000244141</ele>
        <time>2021-09-13T13:18:23Z</time>
      </trkpt>
      <trkpt lat="44.28898" lon="6.18383">
        <ele>1468.4000244141</ele>
        <time>2021-09-13T13:18:45Z</time>
      </trkpt>
      <trkpt lat="44.289" lon="6.18382">
        <ele>1468</ele>
        <time>2021-09-13T13:18:50Z</time>
      </trkpt>
      <trkpt lat="44.28902" lon="6.18383">
        <ele>1468</ele>
        <time>2021-09-13T13:18:54Z</time>
      </trkpt>
      <trkpt lat="44.28926" lon="6.18389">
        <ele>1467.8000488281</ele>
        <time>2021-09-13T13:19:20Z</time>
      </trkpt>
      <trkpt lat="44.28933" lon="6.18394">
        <ele>1466.1999511719</ele>
        <time>2021-09-13T13:19:35Z</time>
      </trkpt>
      <trkpt lat="44.28936" lon="6.18398">
        <ele>1465.5999755859</ele>
        <time>2021-09-13T13:19:40Z</time>
      </trkpt>
      <trkpt lat="44.2894" lon="6.18401">
        <ele>1465</ele>
        <time>2021-09-13T13:19:45Z</time>
      </trkpt>
      <trkpt lat="44.28944" lon="6.18405">
        <ele>1463.8000488281</ele>
        <time>2021-09-13T13:19:54Z</time>
      </trkpt>
      <trkpt lat="44.28947" lon="6.18407">
        <ele>1463.5999755859</ele>
        <time>2021-09-13T13:19:59Z</time>
      </trkpt>
      <trkpt lat="44.2895" lon="6.18408">
        <ele>1463.4000244141</ele>
        <time>2021-09-13T13:20:01Z</time>
      </trkpt>
      <trkpt lat="44.28954" lon="6.1841">
        <ele>1462.4000244141</ele>
        <time>2021-09-13T13:20:07Z</time>
      </trkpt>
      <trkpt lat="44.28967" lon="6.18415">
        <ele>1460.5999755859</ele>
        <time>2021-09-13T13:20:22Z</time>
      </trkpt>
      <trkpt lat="44.28991" lon="6.18413">
        <ele>1458.4000244141</ele>
        <time>2021-09-13T13:20:46Z</time>
      </trkpt>
      <trkpt lat="44.29015" lon="6.18405">
        <ele>1455.1999511719</ele>
        <time>2021-09-13T13:21:11Z</time>
      </trkpt>
      <trkpt lat="44.29028" lon="6.18406">
        <ele>1453.1999511719</ele>
        <time>2021-09-13T13:21:27Z</time>
      </trkpt>
      <trkpt lat="44.29049" lon="6.18404">
        <ele>1450</ele>
        <time>2021-09-13T13:21:52Z</time>
      </trkpt>
      <trkpt lat="44.29054" lon="6.18406">
        <ele>1448.4000244141</ele>
        <time>2021-09-13T13:22:03Z</time>
      </trkpt>
      <trkpt lat="44.29073" lon="6.18398">
        <ele>1445.4000244141</ele>
        <time>2021-09-13T13:22:28Z</time>
      </trkpt>
      <trkpt lat="44.29085" lon="6.18399">
        <ele>1442.1999511719</ele>
        <time>2021-09-13T13:22:45Z</time>
      </trkpt>
      <trkpt lat="44.29101" lon="6.18401">
        <ele>1439.8000488281</ele>
        <time>2021-09-13T13:23:06Z</time>
      </trkpt>
      <trkpt lat="44.29112" lon="6.18414">
        <ele>1437.4000244141</ele>
        <time>2021-09-13T13:23:27Z</time>
      </trkpt>
      <trkpt lat="44.29113" lon="6.18418">
        <ele>1437.4000244141</ele>
        <time>2021-09-13T13:23:30Z</time>
      </trkpt>
      <trkpt lat="44.29121" lon="6.18429">
        <ele>1435.5999755859</ele>
        <time>2021-09-13T13:23:45Z</time>
      </trkpt>
      <trkpt lat="44.29138" lon="6.18434">
        <ele>1434.1999511719</ele>
        <time>2021-09-13T13:24:06Z</time>
      </trkpt>
      <trkpt lat="44.29162" lon="6.18423">
        <ele>1432.1999511719</ele>
        <time>2021-09-13T13:24:30Z</time>
      </trkpt>
      <trkpt lat="44.29164" lon="6.18384">
        <ele>1430.1999511719</ele>
        <time>2021-09-13T13:24:55Z</time>
      </trkpt>
      <trkpt lat="44.2916" lon="6.18373">
        <ele>1429</ele>
        <time>2021-09-13T13:25:04Z</time>
      </trkpt>
      <trkpt lat="44.29158" lon="6.18368">
        <ele>1428.8000488281</ele>
        <time>2021-09-13T13:25:08Z</time>
      </trkpt>
      <trkpt lat="44.29154" lon="6.18354">
        <ele>1427.4000244141</ele>
        <time>2021-09-13T13:25:23Z</time>
      </trkpt>
      <trkpt lat="44.29166" lon="6.18311">
        <ele>1424.8000488281</ele>
        <time>2021-09-13T13:25:53Z</time>
      </trkpt>
      <trkpt lat="44.29165" lon="6.18273">
        <ele>1423.1999511719</ele>
        <time>2021-09-13T13:26:17Z</time>
      </trkpt>
      <trkpt lat="44.29172" lon="6.18258">
        <ele>1421.5999755859</ele>
        <time>2021-09-13T13:26:33Z</time>
      </trkpt>
      <trkpt lat="44.2919" lon="6.1826">
        <ele>1420.1999511719</ele>
        <time>2021-09-13T13:26:53Z</time>
      </trkpt>
      <trkpt lat="44.2921" lon="6.18263">
        <ele>1418.1999511719</ele>
        <time>2021-09-13T13:27:16Z</time>
      </trkpt>
      <trkpt lat="44.29232" lon="6.18266">
        <ele>1416.5999755859</ele>
        <time>2021-09-13T13:27:42Z</time>
      </trkpt>
      <trkpt lat="44.29255" lon="6.18264">
        <ele>1414.8000488281</ele>
        <time>2021-09-13T13:28:10Z</time>
      </trkpt>
      <trkpt lat="44.29264" lon="6.18268">
        <ele>1414</ele>
        <time>2021-09-13T13:28:38Z</time>
      </trkpt>
      <trkpt lat="44.29264" lon="6.18272">
        <ele>1414.1999511719</ele>
        <time>2021-09-13T13:29:14Z</time>
      </trkpt>
      <trkpt lat="44.29265" lon="6.18271">
        <ele>1414.1999511719</ele>
        <time>2021-09-13T13:29:17Z</time>
      </trkpt>
      <trkpt lat="44.29264" lon="6.18278">
        <ele>1413.5999755859</ele>
        <time>2021-09-13T13:29:36Z</time>
      </trkpt>
      <trkpt lat="44.2926" lon="6.18279">
        <ele>1413</ele>
        <time>2021-09-13T13:29:43Z</time>
      </trkpt>
      <trkpt lat="44.29249" lon="6.18282">
        <ele>1413</ele>
        <time>2021-09-13T13:30:09Z</time>
      </trkpt>
      <trkpt lat="44.29253" lon="6.18282">
        <ele>1413.4000244141</ele>
        <time>2021-09-13T13:30:50Z</time>
      </trkpt>
      <trkpt lat="44.29247" lon="6.18281">
        <ele>1413.1999511719</ele>
        <time>2021-09-13T13:31:17Z</time>
      </trkpt>
      <trkpt lat="44.29241" lon="6.18281">
        <ele>1413</ele>
        <time>2021-09-13T13:31:23Z</time>
      </trkpt>
      <trkpt lat="44.29244" lon="6.18277">
        <ele>1413</ele>
        <time>2021-09-13T13:31:43Z</time>
      </trkpt>
      <trkpt lat="44.2925" lon="6.18277">
        <ele>1413</ele>
        <time>2021-09-13T13:31:48Z</time>
      </trkpt>
      <trkpt lat="44.29252" lon="6.18278">
        <ele>1413</ele>
        <time>2021-09-13T13:32:03Z</time>
      </trkpt>
      <trkpt lat="44.2925" lon="6.18276">
        <ele>1413</ele>
        <time>2021-09-13T13:32:05Z</time>
      </trkpt>
      <trkpt lat="44.29253" lon="6.18277">
        <ele>1413</ele>
        <time>2021-09-13T13:32:47Z</time>
      </trkpt>
      <trkpt lat="44.29257" lon="6.18275">
        <ele>1413</ele>
        <time>2021-09-13T13:32:53Z</time>
      </trkpt>
      <trkpt lat="44.29267" lon="6.18272">
        <ele>1413.1999511719</ele>
        <time>2021-09-13T13:33:37Z</time>
      </trkpt>
      <trkpt lat="44.29275" lon="6.18257">
        <ele>1413.5999755859</ele>
        <time>2021-09-13T13:33:55Z</time>
      </trkpt>
      <trkpt lat="44.29296" lon="6.18226">
        <ele>1412.4000244141</ele>
        <time>2021-09-13T13:34:27Z</time>
      </trkpt>
      <trkpt lat="44.29304" lon="6.18234">
        <ele>1410.4000244141</ele>
        <time>2021-09-13T13:34:48Z</time>
      </trkpt>
      <trkpt lat="44.29305" lon="6.18242">
        <ele>1409.8000488281</ele>
        <time>2021-09-13T13:34:56Z</time>
      </trkpt>
      <trkpt lat="44.293" lon="6.18248">
        <ele>1409.4000244141</ele>
        <time>2021-09-13T13:35:56Z</time>
      </trkpt>
      <trkpt lat="44.29286" lon="6.18264">
        <ele>1408.8000488281</ele>
        <time>2021-09-13T13:36:43Z</time>
      </trkpt>
      <trkpt lat="44.29287" lon="6.18287">
        <ele>1407.1999511719</ele>
        <time>2021-09-13T13:37:03Z</time>
      </trkpt>
      <trkpt lat="44.29285" lon="6.18311">
        <ele>1405.8000488281</ele>
        <time>2021-09-13T13:37:24Z</time>
      </trkpt>
      <trkpt lat="44.29282" lon="6.18329">
        <ele>1404.4000244141</ele>
        <time>2021-09-13T13:37:39Z</time>
      </trkpt>
      <trkpt lat="44.29265" lon="6.18358">
        <ele>1401.5999755859</ele>
        <time>2021-09-13T13:38:05Z</time>
      </trkpt>
      <trkpt lat="44.29252" lon="6.18373">
        <ele>1400.4000244141</ele>
        <time>2021-09-13T13:38:29Z</time>
      </trkpt>
      <trkpt lat="44.29268" lon="6.18398">
        <ele>1398</ele>
        <time>2021-09-13T13:38:53Z</time>
      </trkpt>
      <trkpt lat="44.29294" lon="6.1842">
        <ele>1395.8000488281</ele>
        <time>2021-09-13T13:39:21Z</time>
      </trkpt>
      <trkpt lat="44.29309" lon="6.18434">
        <ele>1394.1999511719</ele>
        <time>2021-09-13T13:39:43Z</time>
      </trkpt>
      <trkpt lat="44.29311" lon="6.18484">
        <ele>1391.5999755859</ele>
        <time>2021-09-13T13:40:16Z</time>
      </trkpt>
      <trkpt lat="44.29296" lon="6.18519">
        <ele>1388.8000488281</ele>
        <time>2021-09-13T13:40:46Z</time>
      </trkpt>
      <trkpt lat="44.29281" lon="6.18552">
        <ele>1386.5999755859</ele>
        <time>2021-09-13T13:41:12Z</time>
      </trkpt>
      <trkpt lat="44.29281" lon="6.18573">
        <ele>1385</ele>
        <time>2021-09-13T13:41:35Z</time>
      </trkpt>
      <trkpt lat="44.29288" lon="6.18564">
        <ele>1384.1999511719</ele>
        <time>2021-09-13T13:41:45Z</time>
      </trkpt>
      <trkpt lat="44.29299" lon="6.18543">
        <ele>1383.1999511719</ele>
        <time>2021-09-13T13:42:04Z</time>
      </trkpt>
      <trkpt lat="44.29302" lon="6.18539">
        <ele>1383</ele>
        <time>2021-09-13T13:42:08Z</time>
      </trkpt>
      <trkpt lat="44.29305" lon="6.18538">
        <ele>1382.8000488281</ele>
        <time>2021-09-13T13:42:11Z</time>
      </trkpt>
      <trkpt lat="44.29315" lon="6.18531">
        <ele>1382</ele>
        <time>2021-09-13T13:42:21Z</time>
      </trkpt>
      <trkpt lat="44.29336" lon="6.18519">
        <ele>1380.5999755859</ele>
        <time>2021-09-13T13:42:43Z</time>
      </trkpt>
      <trkpt lat="44.29351" lon="6.18498">
        <ele>1379</ele>
        <time>2021-09-13T13:43:05Z</time>
      </trkpt>
      <trkpt lat="44.29363" lon="6.18468">
        <ele>1377</ele>
        <time>2021-09-13T13:43:31Z</time>
      </trkpt>
      <trkpt lat="44.29387" lon="6.18446">
        <ele>1375</ele>
        <time>2021-09-13T13:44:00Z</time>
      </trkpt>
      <trkpt lat="44.29401" lon="6.18411">
        <ele>1374</ele>
        <time>2021-09-13T13:44:29Z</time>
      </trkpt>
      <trkpt lat="44.29421" lon="6.18391">
        <ele>1372.5999755859</ele>
        <time>2021-09-13T13:44:51Z</time>
      </trkpt>
      <trkpt lat="44.29439" lon="6.18376">
        <ele>1371</ele>
        <time>2021-09-13T13:45:12Z</time>
      </trkpt>
      <trkpt lat="44.29454" lon="6.18356">
        <ele>1369.1999511719</ele>
        <time>2021-09-13T13:45:33Z</time>
      </trkpt>
      <trkpt lat="44.2946" lon="6.18334">
        <ele>1367.5999755859</ele>
        <time>2021-09-13T13:45:52Z</time>
      </trkpt>
      <trkpt lat="44.29469" lon="6.183">
        <ele>1365.1999511719</ele>
        <time>2021-09-13T13:46:15Z</time>
      </trkpt>
      <trkpt lat="44.29486" lon="6.18274">
        <ele>1363</ele>
        <time>2021-09-13T13:46:40Z</time>
      </trkpt>
      <trkpt lat="44.29502" lon="6.18251">
        <ele>1360.4000244141</ele>
        <time>2021-09-13T13:47:04Z</time>
      </trkpt>
      <trkpt lat="44.29517" lon="6.18237">
        <ele>1359</ele>
        <time>2021-09-13T13:47:27Z</time>
      </trkpt>
      <trkpt lat="44.29526" lon="6.18228">
        <ele>1358.4000244141</ele>
        <time>2021-09-13T13:47:53Z</time>
      </trkpt>
      <trkpt lat="44.29523" lon="6.18227">
        <ele>1358.1999511719</ele>
        <time>2021-09-13T13:48:34Z</time>
      </trkpt>
      <trkpt lat="44.29524" lon="6.18231">
        <ele>1359</ele>
        <time>2021-09-13T13:49:09Z</time>
      </trkpt>
      <trkpt lat="44.29525" lon="6.18236">
        <ele>1358.5999755859</ele>
        <time>2021-09-13T13:49:49Z</time>
      </trkpt>
      <trkpt lat="44.29518" lon="6.18232">
        <ele>1358.8000488281</ele>
        <time>2021-09-13T13:50:29Z</time>
      </trkpt>
      <trkpt lat="44.29509" lon="6.18232">
        <ele>1358.8000488281</ele>
        <time>2021-09-13T13:51:00Z</time>
      </trkpt>
      <trkpt lat="44.29504" lon="6.18233">
        <ele>1358.8000488281</ele>
        <time>2021-09-13T13:51:05Z</time>
      </trkpt>
      <trkpt lat="44.29499" lon="6.18234">
        <ele>1358.8000488281</ele>
        <time>2021-09-13T13:51:18Z</time>
      </trkpt>
      <trkpt lat="44.29518" lon="6.18234">
        <ele>1359.1999511719</ele>
        <time>2021-09-13T13:52:11Z</time>
      </trkpt>
      <trkpt lat="44.2952" lon="6.18235">
        <ele>1359</ele>
        <time>2021-09-13T13:52:33Z</time>
      </trkpt>
      <trkpt lat="44.29526" lon="6.18234">
        <ele>1358.8000488281</ele>
        <time>2021-09-13T13:52:52Z</time>
      </trkpt>
      <trkpt lat="44.29544" lon="6.18212">
        <ele>1358.8000488281</ele>
        <time>2021-09-13T13:53:20Z</time>
      </trkpt>
      <trkpt lat="44.29554" lon="6.18192">
        <ele>1358.4000244141</ele>
        <time>2021-09-13T13:53:38Z</time>
      </trkpt>
      <trkpt lat="44.29557" lon="6.18189">
        <ele>1358.1999511719</ele>
        <time>2021-09-13T13:53:41Z</time>
      </trkpt>
      <trkpt lat="44.29576" lon="6.18172">
        <ele>1357.5999755859</ele>
        <time>2021-09-13T13:54:04Z</time>
      </trkpt>
      <trkpt lat="44.29599" lon="6.1816">
        <ele>1356.5999755859</ele>
        <time>2021-09-13T13:54:29Z</time>
      </trkpt>
      <trkpt lat="44.29621" lon="6.18148">
        <ele>1355</ele>
        <time>2021-09-13T13:54:56Z</time>
      </trkpt>
      <trkpt lat="44.29631" lon="6.18143">
        <ele>1354.8000488281</ele>
        <time>2021-09-13T13:55:05Z</time>
      </trkpt>
      <trkpt lat="44.29657" lon="6.18142">
        <ele>1354</ele>
        <time>2021-09-13T13:55:30Z</time>
      </trkpt>
      <trkpt lat="44.29665" lon="6.18137">
        <ele>1353.8000488281</ele>
        <time>2021-09-13T13:55:53Z</time>
      </trkpt>
      <trkpt lat="44.29668" lon="6.1814">
        <ele>1353.8000488281</ele>
        <time>2021-09-13T13:56:10Z</time>
      </trkpt>
      <trkpt lat="44.29666" lon="6.18137">
        <ele>1353.8000488281</ele>
        <time>2021-09-13T13:56:13Z</time>
      </trkpt>
      <trkpt lat="44.29682" lon="6.18141">
        <ele>1354</ele>
        <time>2021-09-13T13:56:44Z</time>
      </trkpt>
      <trkpt lat="44.29694" lon="6.18144">
        <ele>1354</ele>
        <time>2021-09-13T13:56:55Z</time>
      </trkpt>
      <trkpt lat="44.29719" lon="6.18136">
        <ele>1353.8000488281</ele>
        <time>2021-09-13T13:57:18Z</time>
      </trkpt>
      <trkpt lat="44.2974" lon="6.18119">
        <ele>1354.5999755859</ele>
        <time>2021-09-13T13:57:45Z</time>
      </trkpt>
      <trkpt lat="44.29755" lon="6.18113">
        <ele>1355.4000244141</ele>
        <time>2021-09-13T13:58:05Z</time>
      </trkpt>
      <trkpt lat="44.29767" lon="6.18094">
        <ele>1356.4000244141</ele>
        <time>2021-09-13T13:58:27Z</time>
      </trkpt>
      <trkpt lat="44.2977" lon="6.18073">
        <ele>1357.1999511719</ele>
        <time>2021-09-13T13:58:47Z</time>
      </trkpt>
      <trkpt lat="44.29773" lon="6.18065">
        <ele>1358.8000488281</ele>
        <time>2021-09-13T13:59:07Z</time>
      </trkpt>
      <trkpt lat="44.29775" lon="6.18063">
        <ele>1358.5999755859</ele>
        <time>2021-09-13T13:59:49Z</time>
      </trkpt>
      <trkpt lat="44.29774" lon="6.18064">
        <ele>1358.8000488281</ele>
        <time>2021-09-13T14:00:28Z</time>
      </trkpt>
      <trkpt lat="44.29776" lon="6.18062">
        <ele>1358.8000488281</ele>
        <time>2021-09-13T14:00:32Z</time>
      </trkpt>
      <trkpt lat="44.29778" lon="6.1806">
        <ele>1358.8000488281</ele>
        <time>2021-09-13T14:00:34Z</time>
      </trkpt>
      <trkpt lat="44.29785" lon="6.18061">
        <ele>1360.1999511719</ele>
        <time>2021-09-13T14:00:54Z</time>
      </trkpt>
      <trkpt lat="44.29776" lon="6.18076">
        <ele>1363</ele>
        <time>2021-09-13T14:01:18Z</time>
      </trkpt>
      <trkpt lat="44.29775" lon="6.18074">
        <ele>1363</ele>
        <time>2021-09-13T14:01:35Z</time>
      </trkpt>
      <trkpt lat="44.29769" lon="6.1807">
        <ele>1363.1999511719</ele>
        <time>2021-09-13T14:02:31Z</time>
      </trkpt>
      <trkpt lat="44.29772" lon="6.18063">
        <ele>1363.1999511719</ele>
        <time>2021-09-13T14:03:09Z</time>
      </trkpt>
      <trkpt lat="44.29774" lon="6.18079">
        <ele>1363.4000244141</ele>
        <time>2021-09-13T14:03:43Z</time>
      </trkpt>
      <trkpt lat="44.29773" lon="6.18072">
        <ele>1363.5999755859</ele>
        <time>2021-09-13T14:04:42Z</time>
      </trkpt>
      <trkpt lat="44.2977" lon="6.18077">
        <ele>1364</ele>
        <time>2021-09-13T14:05:32Z</time>
      </trkpt>
      <trkpt lat="44.29773" lon="6.18075">
        <ele>1364</ele>
        <time>2021-09-13T14:05:35Z</time>
      </trkpt>
      <trkpt lat="44.29773" lon="6.18074">
        <ele>1364</ele>
        <time>2021-09-13T14:05:42Z</time>
      </trkpt>
      <trkpt lat="44.29777" lon="6.18073">
        <ele>1364.1999511719</ele>
        <time>2021-09-13T14:06:14Z</time>
      </trkpt>
      <trkpt lat="44.29789" lon="6.18064">
        <ele>1363.4000244141</ele>
        <time>2021-09-13T14:06:40Z</time>
      </trkpt>
      <trkpt lat="44.29788" lon="6.18036">
        <ele>1362.1999511719</ele>
        <time>2021-09-13T14:07:04Z</time>
      </trkpt>
      <trkpt lat="44.29799" lon="6.18012">
        <ele>1362.4000244141</ele>
        <time>2021-09-13T14:07:29Z</time>
      </trkpt>
      <trkpt lat="44.29808" lon="6.1799">
        <ele>1361.8000488281</ele>
        <time>2021-09-13T14:07:46Z</time>
      </trkpt>
      <trkpt lat="44.29822" lon="6.17967">
        <ele>1359.4000244141</ele>
        <time>2021-09-13T14:08:11Z</time>
      </trkpt>
      <trkpt lat="44.29835" lon="6.17939">
        <ele>1357.1999511719</ele>
        <time>2021-09-13T14:08:38Z</time>
      </trkpt>
      <trkpt lat="44.29847" lon="6.17935">
        <ele>1355</ele>
        <time>2021-09-13T14:08:56Z</time>
      </trkpt>
      <trkpt lat="44.29866" lon="6.17936">
        <ele>1353.4000244141</ele>
        <time>2021-09-13T14:09:24Z</time>
      </trkpt>
      <trkpt lat="44.29856" lon="6.17912">
        <ele>1353.1999511719</ele>
        <time>2021-09-13T14:09:46Z</time>
      </trkpt>
      <trkpt lat="44.29849" lon="6.17875">
        <ele>1354.1999511719</ele>
        <time>2021-09-13T14:10:13Z</time>
      </trkpt>
      <trkpt lat="44.29847" lon="6.17854">
        <ele>1354.4000244141</ele>
        <time>2021-09-13T14:10:32Z</time>
      </trkpt>
      <trkpt lat="44.2984" lon="6.17818">
        <ele>1353.5999755859</ele>
        <time>2021-09-13T14:11:00Z</time>
      </trkpt>
      <trkpt lat="44.29832" lon="6.17807">
        <ele>1352.5999755859</ele>
        <time>2021-09-13T14:11:21Z</time>
      </trkpt>
      <trkpt lat="44.29834" lon="6.17806">
        <ele>1352.4000244141</ele>
        <time>2021-09-13T14:11:26Z</time>
      </trkpt>
      <trkpt lat="44.29837" lon="6.17805">
        <ele>1352.5999755859</ele>
        <time>2021-09-13T14:11:32Z</time>
      </trkpt>
      <trkpt lat="44.29835" lon="6.17803">
        <ele>1352.5999755859</ele>
        <time>2021-09-13T14:11:43Z</time>
      </trkpt>
    </trkseg>
  </trk>
</gpx>